<?xml version="1.0" encoding="UTF-8" standalone="no" ?>
<gpx xmlns="http://www.topografix.com/GPX/1/1" xmlns:xsi="http://www.w3.org/2001/XMLSchema-instance" xsi:schemaLocation="http://www.topografix.com/GPX/1/1 http://www.topografix.com/GPX/1/1/gpx.xsd" version="1.1" creator="VisuGPX - https://www.visugpx.com">
  <metadata>
    <name>Cassis-an vau 2020</name>
    <desc><![CDATA[
]]></desc>
  </metadata>
  <wpt lat="43.21013" lon="5.49129">
    <ele>164</ele>
    <name><![CDATA[Col de l'Oule]]></name>
    <type><![CDATA[user]]></type>
  </wpt>
  <wpt lat="43.20318" lon="5.5117">
    <ele>18.950636</ele>
    <name><![CDATA[Trou du souffleur]]></name>
    <type><![CDATA[user]]></type>
  </wpt>
  <trk>
    <name><![CDATA[Reco an vau 2020]]></name>
    <trkseg>
      <trkpt lat="43.21258" lon="5.52233">
        <ele>10.41</ele>
        <time>2020-03-06T07:17:21Z</time>
      </trkpt>
      <trkpt lat="43.21258" lon="5.52233">
        <ele>10.41</ele>
        <time>2020-03-06T07:17:22Z</time>
      </trkpt>
      <trkpt lat="43.21256" lon="5.52229">
        <ele>10.1</ele>
        <time>2020-03-06T07:17:46Z</time>
      </trkpt>
      <trkpt lat="43.21256" lon="5.5223">
        <ele>10.21</ele>
        <time>2020-03-06T07:18:04Z</time>
      </trkpt>
      <trkpt lat="43.21258" lon="5.52219">
        <ele>10.26</ele>
        <time>2020-03-06T07:22:24Z</time>
      </trkpt>
      <trkpt lat="43.21256" lon="5.52217">
        <ele>10.43</ele>
        <time>2020-03-06T07:22:26Z</time>
      </trkpt>
      <trkpt lat="43.21257" lon="5.52206">
        <ele>11.92</ele>
        <time>2020-03-06T07:22:41Z</time>
      </trkpt>
      <trkpt lat="43.21264" lon="5.52208">
        <ele>12.77</ele>
        <time>2020-03-06T07:22:49Z</time>
      </trkpt>
      <trkpt lat="43.21273" lon="5.52221">
        <ele>14.43</ele>
        <time>2020-03-06T07:23:01Z</time>
      </trkpt>
      <trkpt lat="43.21285" lon="5.52234">
        <ele>17.01</ele>
        <time>2020-03-06T07:23:14Z</time>
      </trkpt>
      <trkpt lat="43.21299" lon="5.52244">
        <ele>19.48</ele>
        <time>2020-03-06T07:23:28Z</time>
      </trkpt>
      <trkpt lat="43.2131" lon="5.52256">
        <ele>22.64</ele>
        <time>2020-03-06T07:23:44Z</time>
      </trkpt>
      <trkpt lat="43.21323" lon="5.5227">
        <ele>25.47</ele>
        <time>2020-03-06T07:24:01Z</time>
      </trkpt>
      <trkpt lat="43.21338" lon="5.52278">
        <ele>28.5</ele>
        <time>2020-03-06T07:24:19Z</time>
      </trkpt>
      <trkpt lat="43.21339" lon="5.52278">
        <ele>28.59</ele>
        <time>2020-03-06T07:24:20Z</time>
      </trkpt>
      <trkpt lat="43.21354" lon="5.52283">
        <ele>30.75</ele>
        <time>2020-03-06T07:24:36Z</time>
      </trkpt>
      <trkpt lat="43.21363" lon="5.52287">
        <ele>32.73</ele>
        <time>2020-03-06T07:24:49Z</time>
      </trkpt>
      <trkpt lat="43.2137" lon="5.52293">
        <ele>33.53</ele>
        <time>2020-03-06T07:24:57Z</time>
      </trkpt>
      <trkpt lat="43.21378" lon="5.52295">
        <ele>35.82</ele>
        <time>2020-03-06T07:25:10Z</time>
      </trkpt>
      <trkpt lat="43.21373" lon="5.52282">
        <ele>38.44</ele>
        <time>2020-03-06T07:25:26Z</time>
      </trkpt>
      <trkpt lat="43.2136" lon="5.52268">
        <ele>41.46</ele>
        <time>2020-03-06T07:25:44Z</time>
      </trkpt>
      <trkpt lat="43.21345" lon="5.52255">
        <ele>44.61</ele>
        <time>2020-03-06T07:26:04Z</time>
      </trkpt>
      <trkpt lat="43.21335" lon="5.52241">
        <ele>46.93</ele>
        <time>2020-03-06T07:26:21Z</time>
      </trkpt>
      <trkpt lat="43.21326" lon="5.52219">
        <ele>49.97</ele>
        <time>2020-03-06T07:26:42Z</time>
      </trkpt>
      <trkpt lat="43.21316" lon="5.52209">
        <ele>52.72</ele>
        <time>2020-03-06T07:26:57Z</time>
      </trkpt>
      <trkpt lat="43.21311" lon="5.52197">
        <ele>54.87</ele>
        <time>2020-03-06T07:27:08Z</time>
      </trkpt>
      <trkpt lat="43.21311" lon="5.52189">
        <ele>56.64</ele>
        <time>2020-03-06T07:27:26Z</time>
      </trkpt>
      <trkpt lat="43.21314" lon="5.52184">
        <ele>55.5</ele>
        <time>2020-03-06T07:27:59Z</time>
      </trkpt>
      <trkpt lat="43.21313" lon="5.52184">
        <ele>55.38</ele>
        <time>2020-03-06T07:28:30Z</time>
      </trkpt>
      <trkpt lat="43.21315" lon="5.52182">
        <ele>55.02</ele>
        <time>2020-03-06T07:29:08Z</time>
      </trkpt>
      <trkpt lat="43.21316" lon="5.52184">
        <ele>55.67</ele>
        <time>2020-03-06T07:29:37Z</time>
      </trkpt>
      <trkpt lat="43.21317" lon="5.5218">
        <ele>55.98</ele>
        <time>2020-03-06T07:30:28Z</time>
      </trkpt>
      <trkpt lat="43.21318" lon="5.52178">
        <ele>56.41</ele>
        <time>2020-03-06T07:30:50Z</time>
      </trkpt>
      <trkpt lat="43.21321" lon="5.52186">
        <ele>56.84</ele>
        <time>2020-03-06T07:31:09Z</time>
      </trkpt>
      <trkpt lat="43.21333" lon="5.52194">
        <ele>59.81</ele>
        <time>2020-03-06T07:31:28Z</time>
      </trkpt>
      <trkpt lat="43.21345" lon="5.5221">
        <ele>62.84</ele>
        <time>2020-03-06T07:31:45Z</time>
      </trkpt>
      <trkpt lat="43.2136" lon="5.52229">
        <ele>65.96</ele>
        <time>2020-03-06T07:32:06Z</time>
      </trkpt>
      <trkpt lat="43.21373" lon="5.52237">
        <ele>69.11</ele>
        <time>2020-03-06T07:32:20Z</time>
      </trkpt>
      <trkpt lat="43.21378" lon="5.52231">
        <ele>71.81</ele>
        <time>2020-03-06T07:32:39Z</time>
      </trkpt>
      <trkpt lat="43.2137" lon="5.52214">
        <ele>74.93</ele>
        <time>2020-03-06T07:33:01Z</time>
      </trkpt>
      <trkpt lat="43.21363" lon="5.52197">
        <ele>77.58</ele>
        <time>2020-03-06T07:33:18Z</time>
      </trkpt>
      <trkpt lat="43.21354" lon="5.52189">
        <ele>80.59</ele>
        <time>2020-03-06T07:33:35Z</time>
      </trkpt>
      <trkpt lat="43.21349" lon="5.52175">
        <ele>83.62</ele>
        <time>2020-03-06T07:33:52Z</time>
      </trkpt>
      <trkpt lat="43.21348" lon="5.52152">
        <ele>86.65</ele>
        <time>2020-03-06T07:34:11Z</time>
      </trkpt>
      <trkpt lat="43.21345" lon="5.52131">
        <ele>89.53</ele>
        <time>2020-03-06T07:34:28Z</time>
      </trkpt>
      <trkpt lat="43.2134" lon="5.52105">
        <ele>92.59</ele>
        <time>2020-03-06T07:34:46Z</time>
      </trkpt>
      <trkpt lat="43.21338" lon="5.52073">
        <ele>95.1</ele>
        <time>2020-03-06T07:35:05Z</time>
      </trkpt>
      <trkpt lat="43.21332" lon="5.52047">
        <ele>98.28</ele>
        <time>2020-03-06T07:35:24Z</time>
      </trkpt>
      <trkpt lat="43.21334" lon="5.52023">
        <ele>99.81</ele>
        <time>2020-03-06T07:35:35Z</time>
      </trkpt>
      <trkpt lat="43.2133" lon="5.51991">
        <ele>100.88</ele>
        <time>2020-03-06T07:35:50Z</time>
      </trkpt>
      <trkpt lat="43.21324" lon="5.51973">
        <ele>101.23</ele>
        <time>2020-03-06T07:36:04Z</time>
      </trkpt>
      <trkpt lat="43.21324" lon="5.51949">
        <ele>102.87</ele>
        <time>2020-03-06T07:36:20Z</time>
      </trkpt>
      <trkpt lat="43.21326" lon="5.51928">
        <ele>105.27</ele>
        <time>2020-03-06T07:36:35Z</time>
      </trkpt>
      <trkpt lat="43.21326" lon="5.51927">
        <ele>105.46</ele>
        <time>2020-03-06T07:36:36Z</time>
      </trkpt>
      <trkpt lat="43.21327" lon="5.51922">
        <ele>106</ele>
        <time>2020-03-06T07:36:39Z</time>
      </trkpt>
      <trkpt lat="43.21331" lon="5.51905">
        <ele>107.97</ele>
        <time>2020-03-06T07:36:53Z</time>
      </trkpt>
      <trkpt lat="43.21334" lon="5.51896">
        <ele>108.88</ele>
        <time>2020-03-06T07:36:59Z</time>
      </trkpt>
      <trkpt lat="43.2134" lon="5.51865">
        <ele>111.43</ele>
        <time>2020-03-06T07:37:17Z</time>
      </trkpt>
      <trkpt lat="43.21345" lon="5.51839">
        <ele>113.29</ele>
        <time>2020-03-06T07:37:33Z</time>
      </trkpt>
      <trkpt lat="43.21347" lon="5.51829">
        <ele>113.66</ele>
        <time>2020-03-06T07:37:40Z</time>
      </trkpt>
      <trkpt lat="43.21347" lon="5.51826">
        <ele>113.88</ele>
        <time>2020-03-06T07:37:42Z</time>
      </trkpt>
      <trkpt lat="43.21347" lon="5.51816">
        <ele>114.37</ele>
        <time>2020-03-06T07:37:48Z</time>
      </trkpt>
      <trkpt lat="43.21348" lon="5.51811">
        <ele>114.63</ele>
        <time>2020-03-06T07:37:52Z</time>
      </trkpt>
      <trkpt lat="43.21351" lon="5.518">
        <ele>115.02</ele>
        <time>2020-03-06T07:37:58Z</time>
      </trkpt>
      <trkpt lat="43.21357" lon="5.51791">
        <ele>116.32</ele>
        <time>2020-03-06T07:38:05Z</time>
      </trkpt>
      <trkpt lat="43.21367" lon="5.51777">
        <ele>118.36</ele>
        <time>2020-03-06T07:38:19Z</time>
      </trkpt>
      <trkpt lat="43.21374" lon="5.5177">
        <ele>119.49</ele>
        <time>2020-03-06T07:38:26Z</time>
      </trkpt>
      <trkpt lat="43.21378" lon="5.51764">
        <ele>120.17</ele>
        <time>2020-03-06T07:38:31Z</time>
      </trkpt>
      <trkpt lat="43.21397" lon="5.51759">
        <ele>122.3</ele>
        <time>2020-03-06T07:38:46Z</time>
      </trkpt>
      <trkpt lat="43.21417" lon="5.51763">
        <ele>123.74</ele>
        <time>2020-03-06T07:39:01Z</time>
      </trkpt>
      <trkpt lat="43.21438" lon="5.51767">
        <ele>123.85</ele>
        <time>2020-03-06T07:39:14Z</time>
      </trkpt>
      <trkpt lat="43.21464" lon="5.51775">
        <ele>125.1</ele>
        <time>2020-03-06T07:39:31Z</time>
      </trkpt>
      <trkpt lat="43.21487" lon="5.51782">
        <ele>125.17</ele>
        <time>2020-03-06T07:39:48Z</time>
      </trkpt>
      <trkpt lat="43.21508" lon="5.5179">
        <ele>126.27</ele>
        <time>2020-03-06T07:40:04Z</time>
      </trkpt>
      <trkpt lat="43.2153" lon="5.51798">
        <ele>126.81</ele>
        <time>2020-03-06T07:40:21Z</time>
      </trkpt>
      <trkpt lat="43.21542" lon="5.51797">
        <ele>126.83</ele>
        <time>2020-03-06T07:40:29Z</time>
      </trkpt>
      <trkpt lat="43.21546" lon="5.51798">
        <ele>127.02</ele>
        <time>2020-03-06T07:40:33Z</time>
      </trkpt>
      <trkpt lat="43.21558" lon="5.51792">
        <ele>127.79</ele>
        <time>2020-03-06T07:40:43Z</time>
      </trkpt>
      <trkpt lat="43.21575" lon="5.51787">
        <ele>129.77</ele>
        <time>2020-03-06T07:41:01Z</time>
      </trkpt>
      <trkpt lat="43.2159" lon="5.51781">
        <ele>132.87</ele>
        <time>2020-03-06T07:41:19Z</time>
      </trkpt>
      <trkpt lat="43.216" lon="5.51772">
        <ele>136.05</ele>
        <time>2020-03-06T07:41:34Z</time>
      </trkpt>
      <trkpt lat="43.21613" lon="5.51759">
        <ele>139.11</ele>
        <time>2020-03-06T07:41:52Z</time>
      </trkpt>
      <trkpt lat="43.21622" lon="5.5175">
        <ele>142.27</ele>
        <time>2020-03-06T07:42:05Z</time>
      </trkpt>
      <trkpt lat="43.21629" lon="5.51737">
        <ele>145.31</ele>
        <time>2020-03-06T07:42:20Z</time>
      </trkpt>
      <trkpt lat="43.21638" lon="5.51728">
        <ele>148.44</ele>
        <time>2020-03-06T07:42:36Z</time>
      </trkpt>
      <trkpt lat="43.21647" lon="5.5172">
        <ele>151.48</ele>
        <time>2020-03-06T07:42:52Z</time>
      </trkpt>
      <trkpt lat="43.21657" lon="5.51711">
        <ele>154.59</ele>
        <time>2020-03-06T07:43:09Z</time>
      </trkpt>
      <trkpt lat="43.21669" lon="5.51704">
        <ele>157.75</ele>
        <time>2020-03-06T07:43:24Z</time>
      </trkpt>
      <trkpt lat="43.21681" lon="5.51693">
        <ele>160.94</ele>
        <time>2020-03-06T07:43:40Z</time>
      </trkpt>
      <trkpt lat="43.21699" lon="5.51681">
        <ele>164.17</ele>
        <time>2020-03-06T07:44:00Z</time>
      </trkpt>
      <trkpt lat="43.21708" lon="5.51668">
        <ele>167.08</ele>
        <time>2020-03-06T07:44:15Z</time>
      </trkpt>
      <trkpt lat="43.21711" lon="5.51675">
        <ele>166.74</ele>
        <time>2020-03-06T07:44:39Z</time>
      </trkpt>
      <trkpt lat="43.21712" lon="5.51681">
        <ele>165.47</ele>
        <time>2020-03-06T07:45:00Z</time>
      </trkpt>
      <trkpt lat="43.21715" lon="5.5168">
        <ele>165.03</ele>
        <time>2020-03-06T07:45:18Z</time>
      </trkpt>
      <trkpt lat="43.21713" lon="5.51678">
        <ele>165.62</ele>
        <time>2020-03-06T07:45:44Z</time>
      </trkpt>
      <trkpt lat="43.21719" lon="5.51667">
        <ele>166.41</ele>
        <time>2020-03-06T07:46:00Z</time>
      </trkpt>
      <trkpt lat="43.21726" lon="5.51657">
        <ele>169.31</ele>
        <time>2020-03-06T07:46:18Z</time>
      </trkpt>
      <trkpt lat="43.21734" lon="5.51641">
        <ele>171.51</ele>
        <time>2020-03-06T07:46:38Z</time>
      </trkpt>
      <trkpt lat="43.21747" lon="5.51621">
        <ele>174.59</ele>
        <time>2020-03-06T07:47:00Z</time>
      </trkpt>
      <trkpt lat="43.21756" lon="5.51602">
        <ele>177.83</ele>
        <time>2020-03-06T07:47:17Z</time>
      </trkpt>
      <trkpt lat="43.21765" lon="5.51584">
        <ele>181.01</ele>
        <time>2020-03-06T07:47:35Z</time>
      </trkpt>
      <trkpt lat="43.21777" lon="5.5156">
        <ele>184.19</ele>
        <time>2020-03-06T07:47:56Z</time>
      </trkpt>
      <trkpt lat="43.21787" lon="5.51539">
        <ele>187.24</ele>
        <time>2020-03-06T07:48:15Z</time>
      </trkpt>
      <trkpt lat="43.21798" lon="5.51514">
        <ele>190.34</ele>
        <time>2020-03-06T07:48:35Z</time>
      </trkpt>
      <trkpt lat="43.21811" lon="5.5149">
        <ele>193.54</ele>
        <time>2020-03-06T07:48:57Z</time>
      </trkpt>
      <trkpt lat="43.21828" lon="5.51465">
        <ele>196.14</ele>
        <time>2020-03-06T07:49:19Z</time>
      </trkpt>
      <trkpt lat="43.21836" lon="5.51452">
        <ele>197.99</ele>
        <time>2020-03-06T07:49:29Z</time>
      </trkpt>
      <trkpt lat="43.21857" lon="5.51423">
        <ele>200.05</ele>
        <time>2020-03-06T07:49:50Z</time>
      </trkpt>
      <trkpt lat="43.21858" lon="5.51421">
        <ele>200.17</ele>
        <time>2020-03-06T07:49:51Z</time>
      </trkpt>
      <trkpt lat="43.21873" lon="5.51402">
        <ele>201.18</ele>
        <time>2020-03-06T07:50:07Z</time>
      </trkpt>
      <trkpt lat="43.21875" lon="5.514">
        <ele>201.27</ele>
        <time>2020-03-06T07:50:09Z</time>
      </trkpt>
      <trkpt lat="43.21888" lon="5.51383">
        <ele>202.71</ele>
        <time>2020-03-06T07:50:23Z</time>
      </trkpt>
      <trkpt lat="43.21889" lon="5.51382">
        <ele>202.83</ele>
        <time>2020-03-06T07:50:24Z</time>
      </trkpt>
      <trkpt lat="43.21891" lon="5.51379">
        <ele>203.06</ele>
        <time>2020-03-06T07:50:26Z</time>
      </trkpt>
      <trkpt lat="43.21893" lon="5.51375">
        <ele>203.39</ele>
        <time>2020-03-06T07:50:29Z</time>
      </trkpt>
      <trkpt lat="43.21902" lon="5.51354">
        <ele>204.63</ele>
        <time>2020-03-06T07:50:42Z</time>
      </trkpt>
      <trkpt lat="43.21916" lon="5.51332">
        <ele>204.27</ele>
        <time>2020-03-06T07:50:58Z</time>
      </trkpt>
      <trkpt lat="43.21922" lon="5.51323">
        <ele>205.28</ele>
        <time>2020-03-06T07:51:05Z</time>
      </trkpt>
      <trkpt lat="43.21931" lon="5.51307">
        <ele>206.04</ele>
        <time>2020-03-06T07:51:15Z</time>
      </trkpt>
      <trkpt lat="43.21938" lon="5.51298">
        <ele>206.84</ele>
        <time>2020-03-06T07:51:22Z</time>
      </trkpt>
      <trkpt lat="43.2195" lon="5.51277">
        <ele>207.68</ele>
        <time>2020-03-06T07:51:37Z</time>
      </trkpt>
      <trkpt lat="43.2196" lon="5.51258">
        <ele>208.86</ele>
        <time>2020-03-06T07:51:52Z</time>
      </trkpt>
      <trkpt lat="43.21973" lon="5.51229">
        <ele>210.56</ele>
        <time>2020-03-06T07:52:13Z</time>
      </trkpt>
      <trkpt lat="43.21974" lon="5.51228">
        <ele>210.6</ele>
        <time>2020-03-06T07:52:14Z</time>
      </trkpt>
      <trkpt lat="43.21979" lon="5.51224">
        <ele>210.8</ele>
        <time>2020-03-06T07:52:18Z</time>
      </trkpt>
      <trkpt lat="43.21982" lon="5.51217">
        <ele>210.91</ele>
        <time>2020-03-06T07:52:23Z</time>
      </trkpt>
      <trkpt lat="43.21986" lon="5.51213">
        <ele>210.79</ele>
        <time>2020-03-06T07:52:27Z</time>
      </trkpt>
      <trkpt lat="43.21994" lon="5.51197">
        <ele>211.28</ele>
        <time>2020-03-06T07:52:37Z</time>
      </trkpt>
      <trkpt lat="43.22002" lon="5.51183">
        <ele>210.26</ele>
        <time>2020-03-06T07:52:50Z</time>
      </trkpt>
      <trkpt lat="43.2201" lon="5.51178">
        <ele>210.37</ele>
        <time>2020-03-06T07:52:55Z</time>
      </trkpt>
      <trkpt lat="43.2201" lon="5.51178">
        <ele>210.26</ele>
        <time>2020-03-06T07:53:16Z</time>
      </trkpt>
      <trkpt lat="43.22014" lon="5.51174">
        <ele>211.48</ele>
        <time>2020-03-06T07:53:37Z</time>
      </trkpt>
      <trkpt lat="43.2202" lon="5.51171">
        <ele>211.44</ele>
        <time>2020-03-06T07:54:02Z</time>
      </trkpt>
      <trkpt lat="43.22027" lon="5.5116">
        <ele>211.27</ele>
        <time>2020-03-06T07:54:09Z</time>
      </trkpt>
      <trkpt lat="43.22042" lon="5.5114">
        <ele>210.88</ele>
        <time>2020-03-06T07:54:24Z</time>
      </trkpt>
      <trkpt lat="43.22056" lon="5.51128">
        <ele>209.87</ele>
        <time>2020-03-06T07:54:37Z</time>
      </trkpt>
      <trkpt lat="43.22066" lon="5.51112">
        <ele>207.96</ele>
        <time>2020-03-06T07:54:52Z</time>
      </trkpt>
      <trkpt lat="43.22074" lon="5.51094">
        <ele>205.85</ele>
        <time>2020-03-06T07:55:04Z</time>
      </trkpt>
      <trkpt lat="43.22076" lon="5.51091">
        <ele>205.57</ele>
        <time>2020-03-06T07:55:06Z</time>
      </trkpt>
      <trkpt lat="43.22078" lon="5.51086">
        <ele>204.95</ele>
        <time>2020-03-06T07:55:10Z</time>
      </trkpt>
      <trkpt lat="43.22095" lon="5.51069">
        <ele>203.28</ele>
        <time>2020-03-06T07:55:27Z</time>
      </trkpt>
      <trkpt lat="43.22126" lon="5.51044">
        <ele>202.26</ele>
        <time>2020-03-06T07:55:48Z</time>
      </trkpt>
      <trkpt lat="43.22142" lon="5.51035">
        <ele>201.57</ele>
        <time>2020-03-06T07:56:00Z</time>
      </trkpt>
      <trkpt lat="43.22145" lon="5.51033">
        <ele>201.56</ele>
        <time>2020-03-06T07:56:03Z</time>
      </trkpt>
      <trkpt lat="43.22148" lon="5.51029">
        <ele>201.67</ele>
        <time>2020-03-06T07:56:06Z</time>
      </trkpt>
      <trkpt lat="43.22163" lon="5.51018">
        <ele>202.89</ele>
        <time>2020-03-06T07:56:20Z</time>
      </trkpt>
      <trkpt lat="43.22176" lon="5.51004">
        <ele>204.75</ele>
        <time>2020-03-06T07:56:34Z</time>
      </trkpt>
      <trkpt lat="43.22195" lon="5.50985">
        <ele>207.4</ele>
        <time>2020-03-06T07:56:55Z</time>
      </trkpt>
      <trkpt lat="43.2221" lon="5.50968">
        <ele>209.54</ele>
        <time>2020-03-06T07:57:16Z</time>
      </trkpt>
      <trkpt lat="43.22232" lon="5.50948">
        <ele>211.76</ele>
        <time>2020-03-06T07:57:36Z</time>
      </trkpt>
      <trkpt lat="43.2226" lon="5.50936">
        <ele>213.83</ele>
        <time>2020-03-06T07:57:56Z</time>
      </trkpt>
      <trkpt lat="43.22281" lon="5.50926">
        <ele>215.74</ele>
        <time>2020-03-06T07:58:10Z</time>
      </trkpt>
      <trkpt lat="43.22284" lon="5.50924">
        <ele>215.94</ele>
        <time>2020-03-06T07:58:13Z</time>
      </trkpt>
      <trkpt lat="43.22302" lon="5.5091">
        <ele>218.23</ele>
        <time>2020-03-06T07:58:34Z</time>
      </trkpt>
      <trkpt lat="43.22317" lon="5.50898">
        <ele>221.32</ele>
        <time>2020-03-06T07:58:52Z</time>
      </trkpt>
      <trkpt lat="43.22339" lon="5.50887">
        <ele>224.2</ele>
        <time>2020-03-06T07:59:13Z</time>
      </trkpt>
      <trkpt lat="43.22354" lon="5.50867">
        <ele>227.25</ele>
        <time>2020-03-06T07:59:32Z</time>
      </trkpt>
      <trkpt lat="43.22369" lon="5.50847">
        <ele>229.71</ele>
        <time>2020-03-06T07:59:49Z</time>
      </trkpt>
      <trkpt lat="43.22379" lon="5.50833">
        <ele>232.82</ele>
        <time>2020-03-06T08:00:02Z</time>
      </trkpt>
      <trkpt lat="43.22393" lon="5.50815">
        <ele>235.51</ele>
        <time>2020-03-06T08:00:21Z</time>
      </trkpt>
      <trkpt lat="43.22394" lon="5.50812">
        <ele>235.56</ele>
        <time>2020-03-06T08:00:23Z</time>
      </trkpt>
      <trkpt lat="43.22401" lon="5.50786">
        <ele>236.48</ele>
        <time>2020-03-06T08:00:39Z</time>
      </trkpt>
      <trkpt lat="43.22417" lon="5.50767">
        <ele>238.21</ele>
        <time>2020-03-06T08:00:54Z</time>
      </trkpt>
      <trkpt lat="43.22422" lon="5.50763">
        <ele>238.83</ele>
        <time>2020-03-06T08:00:58Z</time>
      </trkpt>
      <trkpt lat="43.2244" lon="5.5075">
        <ele>240.23</ele>
        <time>2020-03-06T08:01:14Z</time>
      </trkpt>
      <trkpt lat="43.22443" lon="5.50746">
        <ele>240.58</ele>
        <time>2020-03-06T08:01:17Z</time>
      </trkpt>
      <trkpt lat="43.22449" lon="5.50719">
        <ele>241.78</ele>
        <time>2020-03-06T08:01:33Z</time>
      </trkpt>
      <trkpt lat="43.2245" lon="5.50704">
        <ele>242.7</ele>
        <time>2020-03-06T08:01:42Z</time>
      </trkpt>
      <trkpt lat="43.2245" lon="5.50698">
        <ele>242.76</ele>
        <time>2020-03-06T08:01:46Z</time>
      </trkpt>
      <trkpt lat="43.22449" lon="5.50686">
        <ele>243.16</ele>
        <time>2020-03-06T08:01:53Z</time>
      </trkpt>
      <trkpt lat="43.22449" lon="5.5068">
        <ele>243.35</ele>
        <time>2020-03-06T08:01:57Z</time>
      </trkpt>
      <trkpt lat="43.22439" lon="5.50651">
        <ele>244.54</ele>
        <time>2020-03-06T08:02:12Z</time>
      </trkpt>
      <trkpt lat="43.2243" lon="5.50621">
        <ele>245.39</ele>
        <time>2020-03-06T08:02:29Z</time>
      </trkpt>
      <trkpt lat="43.22427" lon="5.5061">
        <ele>245.76</ele>
        <time>2020-03-06T08:02:34Z</time>
      </trkpt>
      <trkpt lat="43.22427" lon="5.50586">
        <ele>246.16</ele>
        <time>2020-03-06T08:02:48Z</time>
      </trkpt>
      <trkpt lat="43.22428" lon="5.50584">
        <ele>246.15</ele>
        <time>2020-03-06T08:02:49Z</time>
      </trkpt>
      <trkpt lat="43.22427" lon="5.50577">
        <ele>246.32</ele>
        <time>2020-03-06T08:02:52Z</time>
      </trkpt>
      <trkpt lat="43.22428" lon="5.50566">
        <ele>247.37</ele>
        <time>2020-03-06T08:02:58Z</time>
      </trkpt>
      <trkpt lat="43.22429" lon="5.50555">
        <ele>247.93</ele>
        <time>2020-03-06T08:03:04Z</time>
      </trkpt>
      <trkpt lat="43.22443" lon="5.50536">
        <ele>249.46</ele>
        <time>2020-03-06T08:03:19Z</time>
      </trkpt>
      <trkpt lat="43.22452" lon="5.50529">
        <ele>250.03</ele>
        <time>2020-03-06T08:03:27Z</time>
      </trkpt>
      <trkpt lat="43.22459" lon="5.50524">
        <ele>250.43</ele>
        <time>2020-03-06T08:03:33Z</time>
      </trkpt>
      <trkpt lat="43.22476" lon="5.50508">
        <ele>251.22</ele>
        <time>2020-03-06T08:03:49Z</time>
      </trkpt>
      <trkpt lat="43.22495" lon="5.50494">
        <ele>252.7</ele>
        <time>2020-03-06T08:04:06Z</time>
      </trkpt>
      <trkpt lat="43.22497" lon="5.50493">
        <ele>252.81</ele>
        <time>2020-03-06T08:04:08Z</time>
      </trkpt>
      <trkpt lat="43.22509" lon="5.50482">
        <ele>253.13</ele>
        <time>2020-03-06T08:04:19Z</time>
      </trkpt>
      <trkpt lat="43.22531" lon="5.50469">
        <ele>254.55</ele>
        <time>2020-03-06T08:04:35Z</time>
      </trkpt>
      <trkpt lat="43.22542" lon="5.50465">
        <ele>254.96</ele>
        <time>2020-03-06T08:04:43Z</time>
      </trkpt>
      <trkpt lat="43.22566" lon="5.50461">
        <ele>255.76</ele>
        <time>2020-03-06T08:05:01Z</time>
      </trkpt>
      <trkpt lat="43.22591" lon="5.50455">
        <ele>257.37</ele>
        <time>2020-03-06T08:05:18Z</time>
      </trkpt>
      <trkpt lat="43.22621" lon="5.50451">
        <ele>257.51</ele>
        <time>2020-03-06T08:05:37Z</time>
      </trkpt>
      <trkpt lat="43.22645" lon="5.50446">
        <ele>256.94</ele>
        <time>2020-03-06T08:05:55Z</time>
      </trkpt>
      <trkpt lat="43.22673" lon="5.50442">
        <ele>258.77</ele>
        <time>2020-03-06T08:06:13Z</time>
      </trkpt>
      <trkpt lat="43.2269" lon="5.50437">
        <ele>259.12</ele>
        <time>2020-03-06T08:06:28Z</time>
      </trkpt>
      <trkpt lat="43.227" lon="5.5043">
        <ele>259.86</ele>
        <time>2020-03-06T08:06:43Z</time>
      </trkpt>
      <trkpt lat="43.22703" lon="5.50415">
        <ele>260.09</ele>
        <time>2020-03-06T08:06:53Z</time>
      </trkpt>
      <trkpt lat="43.22707" lon="5.50395">
        <ele>259.5</ele>
        <time>2020-03-06T08:07:11Z</time>
      </trkpt>
      <trkpt lat="43.22707" lon="5.5039">
        <ele>260.59</ele>
        <time>2020-03-06T08:07:37Z</time>
      </trkpt>
      <trkpt lat="43.22709" lon="5.50389">
        <ele>259.82</ele>
        <time>2020-03-06T08:07:56Z</time>
      </trkpt>
      <trkpt lat="43.22703" lon="5.50386">
        <ele>259.43</ele>
        <time>2020-03-06T08:08:20Z</time>
      </trkpt>
      <trkpt lat="43.22698" lon="5.50378">
        <ele>259.49</ele>
        <time>2020-03-06T08:08:28Z</time>
      </trkpt>
      <trkpt lat="43.22685" lon="5.50357">
        <ele>258.88</ele>
        <time>2020-03-06T08:08:38Z</time>
      </trkpt>
      <trkpt lat="43.2267" lon="5.50331">
        <ele>257.39</ele>
        <time>2020-03-06T08:08:53Z</time>
      </trkpt>
      <trkpt lat="43.22658" lon="5.50312">
        <ele>256.54</ele>
        <time>2020-03-06T08:09:05Z</time>
      </trkpt>
      <trkpt lat="43.22644" lon="5.50292">
        <ele>256.07</ele>
        <time>2020-03-06T08:09:19Z</time>
      </trkpt>
      <trkpt lat="43.22624" lon="5.50284">
        <ele>254.02</ele>
        <time>2020-03-06T08:09:32Z</time>
      </trkpt>
      <trkpt lat="43.22623" lon="5.50283">
        <ele>253.96</ele>
        <time>2020-03-06T08:09:33Z</time>
      </trkpt>
      <trkpt lat="43.22622" lon="5.50283">
        <ele>253.88</ele>
        <time>2020-03-06T08:09:34Z</time>
      </trkpt>
      <trkpt lat="43.22621" lon="5.50282">
        <ele>253.82</ele>
        <time>2020-03-06T08:09:35Z</time>
      </trkpt>
      <trkpt lat="43.22619" lon="5.50282">
        <ele>253.74</ele>
        <time>2020-03-06T08:09:36Z</time>
      </trkpt>
      <trkpt lat="43.22617" lon="5.50282">
        <ele>253.69</ele>
        <time>2020-03-06T08:09:37Z</time>
      </trkpt>
      <trkpt lat="43.22595" lon="5.50277">
        <ele>251.97</ele>
        <time>2020-03-06T08:09:52Z</time>
      </trkpt>
      <trkpt lat="43.22571" lon="5.50272">
        <ele>249.79</ele>
        <time>2020-03-06T08:10:06Z</time>
      </trkpt>
      <trkpt lat="43.22552" lon="5.50272">
        <ele>248.4</ele>
        <time>2020-03-06T08:10:18Z</time>
      </trkpt>
      <trkpt lat="43.22549" lon="5.50272">
        <ele>248.23</ele>
        <time>2020-03-06T08:10:20Z</time>
      </trkpt>
      <trkpt lat="43.22547" lon="5.50272">
        <ele>248.14</ele>
        <time>2020-03-06T08:10:21Z</time>
      </trkpt>
      <trkpt lat="43.22546" lon="5.50272">
        <ele>248</ele>
        <time>2020-03-06T08:10:22Z</time>
      </trkpt>
      <trkpt lat="43.22544" lon="5.50272">
        <ele>247.87</ele>
        <time>2020-03-06T08:10:23Z</time>
      </trkpt>
      <trkpt lat="43.22543" lon="5.50272">
        <ele>247.76</ele>
        <time>2020-03-06T08:10:24Z</time>
      </trkpt>
      <trkpt lat="43.22541" lon="5.50272">
        <ele>247.65</ele>
        <time>2020-03-06T08:10:25Z</time>
      </trkpt>
      <trkpt lat="43.2254" lon="5.50273">
        <ele>247.54</ele>
        <time>2020-03-06T08:10:26Z</time>
      </trkpt>
      <trkpt lat="43.22539" lon="5.50273">
        <ele>247.45</ele>
        <time>2020-03-06T08:10:27Z</time>
      </trkpt>
      <trkpt lat="43.22538" lon="5.50273">
        <ele>247.37</ele>
        <time>2020-03-06T08:10:28Z</time>
      </trkpt>
      <trkpt lat="43.22536" lon="5.50274">
        <ele>247.3</ele>
        <time>2020-03-06T08:10:29Z</time>
      </trkpt>
      <trkpt lat="43.22518" lon="5.50274">
        <ele>246.12</ele>
        <time>2020-03-06T08:10:42Z</time>
      </trkpt>
      <trkpt lat="43.22496" lon="5.50275">
        <ele>244.91</ele>
        <time>2020-03-06T08:10:55Z</time>
      </trkpt>
      <trkpt lat="43.22477" lon="5.50277">
        <ele>243.68</ele>
        <time>2020-03-06T08:11:07Z</time>
      </trkpt>
      <trkpt lat="43.22462" lon="5.50277">
        <ele>242.69</ele>
        <time>2020-03-06T08:11:18Z</time>
      </trkpt>
      <trkpt lat="43.22455" lon="5.50278">
        <ele>242.38</ele>
        <time>2020-03-06T08:11:23Z</time>
      </trkpt>
      <trkpt lat="43.22453" lon="5.50278">
        <ele>242.34</ele>
        <time>2020-03-06T08:11:24Z</time>
      </trkpt>
      <trkpt lat="43.22449" lon="5.50278">
        <ele>242.29</ele>
        <time>2020-03-06T08:11:27Z</time>
      </trkpt>
      <trkpt lat="43.22448" lon="5.50278">
        <ele>242.31</ele>
        <time>2020-03-06T08:11:28Z</time>
      </trkpt>
      <trkpt lat="43.22428" lon="5.50279">
        <ele>241.11</ele>
        <time>2020-03-06T08:11:42Z</time>
      </trkpt>
      <trkpt lat="43.22413" lon="5.50269">
        <ele>239.5</ele>
        <time>2020-03-06T08:11:53Z</time>
      </trkpt>
      <trkpt lat="43.22413" lon="5.50268">
        <ele>239.42</ele>
        <time>2020-03-06T08:11:54Z</time>
      </trkpt>
      <trkpt lat="43.2241" lon="5.50264">
        <ele>239.19</ele>
        <time>2020-03-06T08:11:57Z</time>
      </trkpt>
      <trkpt lat="43.22401" lon="5.50239">
        <ele>237.99</ele>
        <time>2020-03-06T08:12:12Z</time>
      </trkpt>
      <trkpt lat="43.22401" lon="5.50227">
        <ele>237.03</ele>
        <time>2020-03-06T08:12:19Z</time>
      </trkpt>
      <trkpt lat="43.224" lon="5.50225">
        <ele>236.94</ele>
        <time>2020-03-06T08:12:20Z</time>
      </trkpt>
      <trkpt lat="43.224" lon="5.50224">
        <ele>236.85</ele>
        <time>2020-03-06T08:12:21Z</time>
      </trkpt>
      <trkpt lat="43.224" lon="5.50206">
        <ele>235.94</ele>
        <time>2020-03-06T08:12:30Z</time>
      </trkpt>
      <trkpt lat="43.224" lon="5.50203">
        <ele>235.97</ele>
        <time>2020-03-06T08:12:31Z</time>
      </trkpt>
      <trkpt lat="43.224" lon="5.50201">
        <ele>235.99</ele>
        <time>2020-03-06T08:12:32Z</time>
      </trkpt>
      <trkpt lat="43.224" lon="5.50176">
        <ele>234.79</ele>
        <time>2020-03-06T08:12:46Z</time>
      </trkpt>
      <trkpt lat="43.22382" lon="5.50163">
        <ele>233.11</ele>
        <time>2020-03-06T08:12:58Z</time>
      </trkpt>
      <trkpt lat="43.22367" lon="5.50163">
        <ele>231.08</ele>
        <time>2020-03-06T08:13:08Z</time>
      </trkpt>
      <trkpt lat="43.22365" lon="5.50163">
        <ele>230.94</ele>
        <time>2020-03-06T08:13:09Z</time>
      </trkpt>
      <trkpt lat="43.22364" lon="5.50163">
        <ele>230.83</ele>
        <time>2020-03-06T08:13:10Z</time>
      </trkpt>
      <trkpt lat="43.22362" lon="5.50163">
        <ele>230.72</ele>
        <time>2020-03-06T08:13:11Z</time>
      </trkpt>
      <trkpt lat="43.22361" lon="5.50163">
        <ele>230.59</ele>
        <time>2020-03-06T08:13:12Z</time>
      </trkpt>
      <trkpt lat="43.2236" lon="5.50162">
        <ele>230.46</ele>
        <time>2020-03-06T08:13:13Z</time>
      </trkpt>
      <trkpt lat="43.22358" lon="5.50162">
        <ele>230.33</ele>
        <time>2020-03-06T08:13:14Z</time>
      </trkpt>
      <trkpt lat="43.22357" lon="5.50162">
        <ele>230.14</ele>
        <time>2020-03-06T08:13:15Z</time>
      </trkpt>
      <trkpt lat="43.22355" lon="5.50162">
        <ele>229.92</ele>
        <time>2020-03-06T08:13:16Z</time>
      </trkpt>
      <trkpt lat="43.22337" lon="5.50167">
        <ele>227.79</ele>
        <time>2020-03-06T08:13:30Z</time>
      </trkpt>
      <trkpt lat="43.2232" lon="5.50172">
        <ele>226.15</ele>
        <time>2020-03-06T08:13:42Z</time>
      </trkpt>
      <trkpt lat="43.22302" lon="5.50182">
        <ele>223.98</ele>
        <time>2020-03-06T08:13:56Z</time>
      </trkpt>
      <trkpt lat="43.22289" lon="5.50189">
        <ele>223.07</ele>
        <time>2020-03-06T08:14:13Z</time>
      </trkpt>
      <trkpt lat="43.22273" lon="5.50199">
        <ele>220.35</ele>
        <time>2020-03-06T08:14:28Z</time>
      </trkpt>
      <trkpt lat="43.22271" lon="5.50197">
        <ele>220.08</ele>
        <time>2020-03-06T08:14:31Z</time>
      </trkpt>
      <trkpt lat="43.22266" lon="5.50192">
        <ele>219.7</ele>
        <time>2020-03-06T08:14:36Z</time>
      </trkpt>
      <trkpt lat="43.22265" lon="5.50192">
        <ele>219.65</ele>
        <time>2020-03-06T08:14:37Z</time>
      </trkpt>
      <trkpt lat="43.22263" lon="5.50191">
        <ele>219.59</ele>
        <time>2020-03-06T08:14:38Z</time>
      </trkpt>
      <trkpt lat="43.22262" lon="5.50191">
        <ele>219.56</ele>
        <time>2020-03-06T08:14:39Z</time>
      </trkpt>
      <trkpt lat="43.22261" lon="5.50191">
        <ele>219.53</ele>
        <time>2020-03-06T08:14:40Z</time>
      </trkpt>
      <trkpt lat="43.2226" lon="5.5019">
        <ele>219.5</ele>
        <time>2020-03-06T08:14:41Z</time>
      </trkpt>
      <trkpt lat="43.22258" lon="5.5019">
        <ele>219.46</ele>
        <time>2020-03-06T08:14:42Z</time>
      </trkpt>
      <trkpt lat="43.22257" lon="5.50189">
        <ele>219.42</ele>
        <time>2020-03-06T08:14:43Z</time>
      </trkpt>
      <trkpt lat="43.22257" lon="5.50188">
        <ele>219.36</ele>
        <time>2020-03-06T08:14:44Z</time>
      </trkpt>
      <trkpt lat="43.22256" lon="5.50186">
        <ele>219.28</ele>
        <time>2020-03-06T08:14:45Z</time>
      </trkpt>
      <trkpt lat="43.22253" lon="5.50182">
        <ele>218.74</ele>
        <time>2020-03-06T08:14:48Z</time>
      </trkpt>
      <trkpt lat="43.22246" lon="5.50162">
        <ele>218.64</ele>
        <time>2020-03-06T08:15:01Z</time>
      </trkpt>
      <trkpt lat="43.22236" lon="5.50145">
        <ele>219.76</ele>
        <time>2020-03-06T08:15:12Z</time>
      </trkpt>
      <trkpt lat="43.2222" lon="5.50121">
        <ele>221.36</ele>
        <time>2020-03-06T08:15:29Z</time>
      </trkpt>
      <trkpt lat="43.22198" lon="5.50113">
        <ele>220.58</ele>
        <time>2020-03-06T08:15:43Z</time>
      </trkpt>
      <trkpt lat="43.22178" lon="5.50109">
        <ele>217.44</ele>
        <time>2020-03-06T08:15:58Z</time>
      </trkpt>
      <trkpt lat="43.22166" lon="5.50107">
        <ele>214.13</ele>
        <time>2020-03-06T08:16:09Z</time>
      </trkpt>
      <trkpt lat="43.22162" lon="5.50109">
        <ele>213.36</ele>
        <time>2020-03-06T08:16:13Z</time>
      </trkpt>
      <trkpt lat="43.22155" lon="5.50107">
        <ele>212.26</ele>
        <time>2020-03-06T08:16:18Z</time>
      </trkpt>
      <trkpt lat="43.22152" lon="5.50109">
        <ele>211.34</ele>
        <time>2020-03-06T08:16:21Z</time>
      </trkpt>
      <trkpt lat="43.22142" lon="5.5011">
        <ele>207.94</ele>
        <time>2020-03-06T08:16:33Z</time>
      </trkpt>
      <trkpt lat="43.2214" lon="5.50106">
        <ele>206.77</ele>
        <time>2020-03-06T08:16:37Z</time>
      </trkpt>
      <trkpt lat="43.22133" lon="5.50082">
        <ele>205.27</ele>
        <time>2020-03-06T08:16:50Z</time>
      </trkpt>
      <trkpt lat="43.22132" lon="5.50073">
        <ele>204.75</ele>
        <time>2020-03-06T08:16:56Z</time>
      </trkpt>
      <trkpt lat="43.2213" lon="5.50042">
        <ele>203.73</ele>
        <time>2020-03-06T08:17:10Z</time>
      </trkpt>
      <trkpt lat="43.22129" lon="5.50018">
        <ele>202.6</ele>
        <time>2020-03-06T08:17:23Z</time>
      </trkpt>
      <trkpt lat="43.22123" lon="5.49988">
        <ele>201.38</ele>
        <time>2020-03-06T08:17:37Z</time>
      </trkpt>
      <trkpt lat="43.22116" lon="5.49965">
        <ele>200.14</ele>
        <time>2020-03-06T08:17:48Z</time>
      </trkpt>
      <trkpt lat="43.22116" lon="5.49963">
        <ele>199.97</ele>
        <time>2020-03-06T08:17:49Z</time>
      </trkpt>
      <trkpt lat="43.22119" lon="5.49947">
        <ele>199.4</ele>
        <time>2020-03-06T08:17:55Z</time>
      </trkpt>
      <trkpt lat="43.22124" lon="5.49938">
        <ele>198.57</ele>
        <time>2020-03-06T08:18:01Z</time>
      </trkpt>
      <trkpt lat="43.22125" lon="5.49914">
        <ele>197.21</ele>
        <time>2020-03-06T08:18:12Z</time>
      </trkpt>
      <trkpt lat="43.22123" lon="5.49891">
        <ele>197.52</ele>
        <time>2020-03-06T08:18:25Z</time>
      </trkpt>
      <trkpt lat="43.22126" lon="5.49884">
        <ele>198.33</ele>
        <time>2020-03-06T08:18:28Z</time>
      </trkpt>
      <trkpt lat="43.22119" lon="5.49872">
        <ele>199.98</ele>
        <time>2020-03-06T08:18:41Z</time>
      </trkpt>
      <trkpt lat="43.2211" lon="5.49868">
        <ele>202.57</ele>
        <time>2020-03-06T08:18:57Z</time>
      </trkpt>
      <trkpt lat="43.22087" lon="5.49871">
        <ele>204.56</ele>
        <time>2020-03-06T08:19:17Z</time>
      </trkpt>
      <trkpt lat="43.22073" lon="5.49877">
        <ele>205.21</ele>
        <time>2020-03-06T08:19:27Z</time>
      </trkpt>
      <trkpt lat="43.22066" lon="5.49878">
        <ele>205.49</ele>
        <time>2020-03-06T08:19:31Z</time>
      </trkpt>
      <trkpt lat="43.22057" lon="5.49887">
        <ele>205.54</ele>
        <time>2020-03-06T08:19:36Z</time>
      </trkpt>
      <trkpt lat="43.22047" lon="5.49889">
        <ele>205.74</ele>
        <time>2020-03-06T08:19:45Z</time>
      </trkpt>
      <trkpt lat="43.22035" lon="5.49896">
        <ele>205.72</ele>
        <time>2020-03-06T08:19:54Z</time>
      </trkpt>
      <trkpt lat="43.22029" lon="5.49897">
        <ele>205.49</ele>
        <time>2020-03-06T08:19:58Z</time>
      </trkpt>
      <trkpt lat="43.22017" lon="5.49901">
        <ele>206.04</ele>
        <time>2020-03-06T08:20:07Z</time>
      </trkpt>
      <trkpt lat="43.22013" lon="5.49901">
        <ele>206.27</ele>
        <time>2020-03-06T08:20:10Z</time>
      </trkpt>
      <trkpt lat="43.22008" lon="5.49903">
        <ele>206.43</ele>
        <time>2020-03-06T08:20:14Z</time>
      </trkpt>
      <trkpt lat="43.22002" lon="5.49906">
        <ele>206.22</ele>
        <time>2020-03-06T08:20:18Z</time>
      </trkpt>
      <trkpt lat="43.21981" lon="5.49917">
        <ele>205.47</ele>
        <time>2020-03-06T08:20:32Z</time>
      </trkpt>
      <trkpt lat="43.2196" lon="5.49914">
        <ele>203.54</ele>
        <time>2020-03-06T08:20:44Z</time>
      </trkpt>
      <trkpt lat="43.21958" lon="5.49913">
        <ele>203.32</ele>
        <time>2020-03-06T08:20:45Z</time>
      </trkpt>
      <trkpt lat="43.21945" lon="5.499">
        <ele>202.85</ele>
        <time>2020-03-06T08:20:54Z</time>
      </trkpt>
      <trkpt lat="43.21935" lon="5.49886">
        <ele>202.06</ele>
        <time>2020-03-06T08:21:03Z</time>
      </trkpt>
      <trkpt lat="43.21911" lon="5.49866">
        <ele>200.33</ele>
        <time>2020-03-06T08:21:20Z</time>
      </trkpt>
      <trkpt lat="43.21891" lon="5.49848">
        <ele>199.49</ele>
        <time>2020-03-06T08:21:35Z</time>
      </trkpt>
      <trkpt lat="43.21886" lon="5.49844">
        <ele>199.14</ele>
        <time>2020-03-06T08:21:39Z</time>
      </trkpt>
      <trkpt lat="43.21886" lon="5.49843">
        <ele>199.07</ele>
        <time>2020-03-06T08:21:40Z</time>
      </trkpt>
      <trkpt lat="43.21885" lon="5.49842">
        <ele>199.02</ele>
        <time>2020-03-06T08:21:41Z</time>
      </trkpt>
      <trkpt lat="43.21879" lon="5.49819">
        <ele>198.06</ele>
        <time>2020-03-06T08:21:54Z</time>
      </trkpt>
      <trkpt lat="43.21884" lon="5.49792">
        <ele>196.34</ele>
        <time>2020-03-06T08:22:07Z</time>
      </trkpt>
      <trkpt lat="43.21895" lon="5.49774">
        <ele>194.38</ele>
        <time>2020-03-06T08:22:19Z</time>
      </trkpt>
      <trkpt lat="43.21904" lon="5.49753">
        <ele>193.81</ele>
        <time>2020-03-06T08:22:30Z</time>
      </trkpt>
      <trkpt lat="43.21892" lon="5.49737">
        <ele>191.42</ele>
        <time>2020-03-06T08:22:42Z</time>
      </trkpt>
      <trkpt lat="43.21886" lon="5.49735">
        <ele>190.26</ele>
        <time>2020-03-06T08:22:47Z</time>
      </trkpt>
      <trkpt lat="43.21884" lon="5.49735">
        <ele>189.98</ele>
        <time>2020-03-06T08:22:48Z</time>
      </trkpt>
      <trkpt lat="43.21883" lon="5.49733">
        <ele>189.69</ele>
        <time>2020-03-06T08:22:49Z</time>
      </trkpt>
      <trkpt lat="43.21881" lon="5.49732">
        <ele>189.42</ele>
        <time>2020-03-06T08:22:50Z</time>
      </trkpt>
      <trkpt lat="43.21879" lon="5.4973">
        <ele>189.18</ele>
        <time>2020-03-06T08:22:51Z</time>
      </trkpt>
      <trkpt lat="43.21877" lon="5.4973">
        <ele>188.96</ele>
        <time>2020-03-06T08:22:52Z</time>
      </trkpt>
      <trkpt lat="43.21876" lon="5.49729">
        <ele>188.73</ele>
        <time>2020-03-06T08:22:53Z</time>
      </trkpt>
      <trkpt lat="43.2187" lon="5.49728">
        <ele>187.21</ele>
        <time>2020-03-06T08:22:58Z</time>
      </trkpt>
      <trkpt lat="43.21864" lon="5.49729">
        <ele>186.03</ele>
        <time>2020-03-06T08:23:03Z</time>
      </trkpt>
      <trkpt lat="43.21846" lon="5.49728">
        <ele>184.43</ele>
        <time>2020-03-06T08:23:13Z</time>
      </trkpt>
      <trkpt lat="43.21837" lon="5.49731">
        <ele>183.02</ele>
        <time>2020-03-06T08:23:19Z</time>
      </trkpt>
      <trkpt lat="43.21835" lon="5.49732">
        <ele>182.79</ele>
        <time>2020-03-06T08:23:20Z</time>
      </trkpt>
      <trkpt lat="43.21833" lon="5.49733">
        <ele>182.58</ele>
        <time>2020-03-06T08:23:21Z</time>
      </trkpt>
      <trkpt lat="43.21832" lon="5.49734">
        <ele>182.16</ele>
        <time>2020-03-06T08:23:22Z</time>
      </trkpt>
      <trkpt lat="43.2183" lon="5.49734">
        <ele>181.92</ele>
        <time>2020-03-06T08:23:23Z</time>
      </trkpt>
      <trkpt lat="43.21828" lon="5.49734">
        <ele>181.69</ele>
        <time>2020-03-06T08:23:24Z</time>
      </trkpt>
      <trkpt lat="43.21827" lon="5.49734">
        <ele>181.48</ele>
        <time>2020-03-06T08:23:25Z</time>
      </trkpt>
      <trkpt lat="43.21817" lon="5.4974">
        <ele>180.39</ele>
        <time>2020-03-06T08:23:33Z</time>
      </trkpt>
      <trkpt lat="43.21815" lon="5.49743">
        <ele>180.27</ele>
        <time>2020-03-06T08:23:35Z</time>
      </trkpt>
      <trkpt lat="43.21813" lon="5.49744">
        <ele>180.22</ele>
        <time>2020-03-06T08:23:36Z</time>
      </trkpt>
      <trkpt lat="43.21812" lon="5.49746">
        <ele>180.18</ele>
        <time>2020-03-06T08:23:37Z</time>
      </trkpt>
      <trkpt lat="43.21811" lon="5.49747">
        <ele>180.14</ele>
        <time>2020-03-06T08:23:38Z</time>
      </trkpt>
      <trkpt lat="43.21809" lon="5.49747">
        <ele>180.09</ele>
        <time>2020-03-06T08:23:39Z</time>
      </trkpt>
      <trkpt lat="43.21807" lon="5.49747">
        <ele>180.02</ele>
        <time>2020-03-06T08:23:40Z</time>
      </trkpt>
      <trkpt lat="43.21806" lon="5.49747">
        <ele>179.95</ele>
        <time>2020-03-06T08:23:41Z</time>
      </trkpt>
      <trkpt lat="43.21796" lon="5.49748">
        <ele>178.88</ele>
        <time>2020-03-06T08:23:56Z</time>
      </trkpt>
      <trkpt lat="43.21792" lon="5.49749">
        <ele>178.73</ele>
        <time>2020-03-06T08:24:16Z</time>
      </trkpt>
      <trkpt lat="43.21788" lon="5.49748">
        <ele>177.46</ele>
        <time>2020-03-06T08:24:29Z</time>
      </trkpt>
      <trkpt lat="43.21785" lon="5.49746">
        <ele>177.26</ele>
        <time>2020-03-06T08:24:34Z</time>
      </trkpt>
      <trkpt lat="43.21784" lon="5.49741">
        <ele>177.39</ele>
        <time>2020-03-06T08:24:46Z</time>
      </trkpt>
      <trkpt lat="43.2178" lon="5.49744">
        <ele>176.93</ele>
        <time>2020-03-06T08:25:11Z</time>
      </trkpt>
      <trkpt lat="43.21775" lon="5.49743">
        <ele>176.07</ele>
        <time>2020-03-06T08:25:29Z</time>
      </trkpt>
      <trkpt lat="43.21775" lon="5.4974">
        <ele>174.79</ele>
        <time>2020-03-06T08:25:47Z</time>
      </trkpt>
      <trkpt lat="43.21764" lon="5.49734">
        <ele>172.36</ele>
        <time>2020-03-06T08:26:04Z</time>
      </trkpt>
      <trkpt lat="43.21751" lon="5.49735">
        <ele>169.82</ele>
        <time>2020-03-06T08:26:22Z</time>
      </trkpt>
      <trkpt lat="43.21736" lon="5.4973">
        <ele>168.17</ele>
        <time>2020-03-06T08:26:38Z</time>
      </trkpt>
      <trkpt lat="43.21724" lon="5.4972">
        <ele>167.9</ele>
        <time>2020-03-06T08:26:54Z</time>
      </trkpt>
      <trkpt lat="43.21719" lon="5.4971">
        <ele>168.09</ele>
        <time>2020-03-06T08:27:16Z</time>
      </trkpt>
      <trkpt lat="43.21709" lon="5.49702">
        <ele>167.55</ele>
        <time>2020-03-06T08:27:29Z</time>
      </trkpt>
      <trkpt lat="43.21706" lon="5.49699">
        <ele>167.44</ele>
        <time>2020-03-06T08:27:33Z</time>
      </trkpt>
      <trkpt lat="43.21704" lon="5.49687">
        <ele>166.94</ele>
        <time>2020-03-06T08:27:42Z</time>
      </trkpt>
      <trkpt lat="43.21696" lon="5.49667">
        <ele>163.94</ele>
        <time>2020-03-06T08:28:03Z</time>
      </trkpt>
      <trkpt lat="43.21685" lon="5.49649">
        <ele>162.14</ele>
        <time>2020-03-06T08:28:16Z</time>
      </trkpt>
      <trkpt lat="43.21683" lon="5.49635">
        <ele>158.88</ele>
        <time>2020-03-06T08:28:32Z</time>
      </trkpt>
      <trkpt lat="43.21684" lon="5.4963">
        <ele>158.16</ele>
        <time>2020-03-06T08:28:37Z</time>
      </trkpt>
      <trkpt lat="43.21685" lon="5.49627">
        <ele>157.79</ele>
        <time>2020-03-06T08:28:40Z</time>
      </trkpt>
      <trkpt lat="43.21684" lon="5.49619">
        <ele>157.39</ele>
        <time>2020-03-06T08:28:46Z</time>
      </trkpt>
      <trkpt lat="43.2168" lon="5.49604">
        <ele>154.27</ele>
        <time>2020-03-06T08:28:59Z</time>
      </trkpt>
      <trkpt lat="43.21672" lon="5.49584">
        <ele>151.58</ele>
        <time>2020-03-06T08:29:19Z</time>
      </trkpt>
      <trkpt lat="43.21665" lon="5.49575">
        <ele>149.19</ele>
        <time>2020-03-06T08:29:35Z</time>
      </trkpt>
      <trkpt lat="43.21657" lon="5.49557">
        <ele>146.75</ele>
        <time>2020-03-06T08:29:56Z</time>
      </trkpt>
      <trkpt lat="43.21654" lon="5.49541">
        <ele>145.59</ele>
        <time>2020-03-06T08:30:12Z</time>
      </trkpt>
      <trkpt lat="43.2165" lon="5.49525">
        <ele>142.46</ele>
        <time>2020-03-06T08:30:22Z</time>
      </trkpt>
      <trkpt lat="43.2164" lon="5.49505">
        <ele>139.37</ele>
        <time>2020-03-06T08:30:36Z</time>
      </trkpt>
      <trkpt lat="43.21636" lon="5.49492">
        <ele>136.12</ele>
        <time>2020-03-06T08:30:51Z</time>
      </trkpt>
      <trkpt lat="43.21631" lon="5.49488">
        <ele>132.85</ele>
        <time>2020-03-06T08:31:00Z</time>
      </trkpt>
      <trkpt lat="43.21616" lon="5.49474">
        <ele>130.79</ele>
        <time>2020-03-06T08:31:18Z</time>
      </trkpt>
      <trkpt lat="43.21613" lon="5.49475">
        <ele>130.03</ele>
        <time>2020-03-06T08:31:22Z</time>
      </trkpt>
      <trkpt lat="43.21605" lon="5.49474">
        <ele>126.77</ele>
        <time>2020-03-06T08:31:38Z</time>
      </trkpt>
      <trkpt lat="43.21605" lon="5.49471">
        <ele>126.31</ele>
        <time>2020-03-06T08:31:43Z</time>
      </trkpt>
      <trkpt lat="43.21603" lon="5.49465">
        <ele>123.2</ele>
        <time>2020-03-06T08:32:00Z</time>
      </trkpt>
      <trkpt lat="43.21599" lon="5.49461">
        <ele>122.83</ele>
        <time>2020-03-06T08:32:04Z</time>
      </trkpt>
      <trkpt lat="43.21583" lon="5.49449">
        <ele>122.09</ele>
        <time>2020-03-06T08:32:13Z</time>
      </trkpt>
      <trkpt lat="43.21581" lon="5.49448">
        <ele>121.62</ele>
        <time>2020-03-06T08:32:17Z</time>
      </trkpt>
      <trkpt lat="43.21574" lon="5.49441">
        <ele>120.77</ele>
        <time>2020-03-06T08:32:24Z</time>
      </trkpt>
      <trkpt lat="43.2156" lon="5.49432">
        <ele>119.61</ele>
        <time>2020-03-06T08:32:38Z</time>
      </trkpt>
      <trkpt lat="43.21544" lon="5.49428">
        <ele>117.93</ele>
        <time>2020-03-06T08:32:56Z</time>
      </trkpt>
      <trkpt lat="43.21541" lon="5.49426">
        <ele>117.77</ele>
        <time>2020-03-06T08:32:57Z</time>
      </trkpt>
      <trkpt lat="43.21522" lon="5.49421">
        <ele>115.95</ele>
        <time>2020-03-06T08:33:06Z</time>
      </trkpt>
      <trkpt lat="43.21513" lon="5.49417">
        <ele>114.81</ele>
        <time>2020-03-06T08:33:12Z</time>
      </trkpt>
      <trkpt lat="43.21482" lon="5.49434">
        <ele>112.06</ele>
        <time>2020-03-06T08:33:32Z</time>
      </trkpt>
      <trkpt lat="43.2148" lon="5.49434">
        <ele>110.97</ele>
        <time>2020-03-06T08:33:40Z</time>
      </trkpt>
      <trkpt lat="43.21483" lon="5.49428">
        <ele>110.5</ele>
        <time>2020-03-06T08:33:45Z</time>
      </trkpt>
      <trkpt lat="43.21485" lon="5.49417">
        <ele>111.51</ele>
        <time>2020-03-06T08:33:52Z</time>
      </trkpt>
      <trkpt lat="43.21485" lon="5.49396">
        <ele>112.78</ele>
        <time>2020-03-06T08:34:06Z</time>
      </trkpt>
      <trkpt lat="43.2148" lon="5.494">
        <ele>113.26</ele>
        <time>2020-03-06T08:41:33Z</time>
      </trkpt>
      <trkpt lat="43.21477" lon="5.49402">
        <ele>114.31</ele>
        <time>2020-03-06T08:41:51Z</time>
      </trkpt>
      <trkpt lat="43.21477" lon="5.49396">
        <ele>117.11</ele>
        <time>2020-03-06T08:42:05Z</time>
      </trkpt>
      <trkpt lat="43.21472" lon="5.49394">
        <ele>120.46</ele>
        <time>2020-03-06T08:42:16Z</time>
      </trkpt>
      <trkpt lat="43.21471" lon="5.49395">
        <ele>121.68</ele>
        <time>2020-03-06T08:42:21Z</time>
      </trkpt>
      <trkpt lat="43.21465" lon="5.49386">
        <ele>124.9</ele>
        <time>2020-03-06T08:42:39Z</time>
      </trkpt>
      <trkpt lat="43.21461" lon="5.49382">
        <ele>127.97</ele>
        <time>2020-03-06T08:42:51Z</time>
      </trkpt>
      <trkpt lat="43.2146" lon="5.49381">
        <ele>128.26</ele>
        <time>2020-03-06T08:42:52Z</time>
      </trkpt>
      <trkpt lat="43.2146" lon="5.4938">
        <ele>128.56</ele>
        <time>2020-03-06T08:42:53Z</time>
      </trkpt>
      <trkpt lat="43.21459" lon="5.49374">
        <ele>130.78</ele>
        <time>2020-03-06T08:43:02Z</time>
      </trkpt>
      <trkpt lat="43.21458" lon="5.4936">
        <ele>134.15</ele>
        <time>2020-03-06T08:43:19Z</time>
      </trkpt>
      <trkpt lat="43.21459" lon="5.49344">
        <ele>137.03</ele>
        <time>2020-03-06T08:43:39Z</time>
      </trkpt>
      <trkpt lat="43.21459" lon="5.49339">
        <ele>138.87</ele>
        <time>2020-03-06T08:43:47Z</time>
      </trkpt>
      <trkpt lat="43.21454" lon="5.49337">
        <ele>142.17</ele>
        <time>2020-03-06T08:44:04Z</time>
      </trkpt>
      <trkpt lat="43.21453" lon="5.49336">
        <ele>145.17</ele>
        <time>2020-03-06T08:44:21Z</time>
      </trkpt>
      <trkpt lat="43.21446" lon="5.4933">
        <ele>147.48</ele>
        <time>2020-03-06T08:44:31Z</time>
      </trkpt>
      <trkpt lat="43.21438" lon="5.4934">
        <ele>150.55</ele>
        <time>2020-03-06T08:44:52Z</time>
      </trkpt>
      <trkpt lat="43.21432" lon="5.49343">
        <ele>152.62</ele>
        <time>2020-03-06T08:45:17Z</time>
      </trkpt>
      <trkpt lat="43.21426" lon="5.49346">
        <ele>155.65</ele>
        <time>2020-03-06T08:45:31Z</time>
      </trkpt>
      <trkpt lat="43.21419" lon="5.49349">
        <ele>158.74</ele>
        <time>2020-03-06T08:45:45Z</time>
      </trkpt>
      <trkpt lat="43.21413" lon="5.49352">
        <ele>161.63</ele>
        <time>2020-03-06T08:46:04Z</time>
      </trkpt>
      <trkpt lat="43.21406" lon="5.49351">
        <ele>164.75</ele>
        <time>2020-03-06T08:46:17Z</time>
      </trkpt>
      <trkpt lat="43.21395" lon="5.49362">
        <ele>167.16</ele>
        <time>2020-03-06T08:46:38Z</time>
      </trkpt>
      <trkpt lat="43.21383" lon="5.49371">
        <ele>169.77</ele>
        <time>2020-03-06T08:46:58Z</time>
      </trkpt>
      <trkpt lat="43.21367" lon="5.49383">
        <ele>171.45</ele>
        <time>2020-03-06T08:47:17Z</time>
      </trkpt>
      <trkpt lat="43.21354" lon="5.49392">
        <ele>173.6</ele>
        <time>2020-03-06T08:47:37Z</time>
      </trkpt>
      <trkpt lat="43.21333" lon="5.49391">
        <ele>174.08</ele>
        <time>2020-03-06T08:47:55Z</time>
      </trkpt>
      <trkpt lat="43.21311" lon="5.49393">
        <ele>173.61</ele>
        <time>2020-03-06T08:48:14Z</time>
      </trkpt>
      <trkpt lat="43.21309" lon="5.49393">
        <ele>173.54</ele>
        <time>2020-03-06T08:48:16Z</time>
      </trkpt>
      <trkpt lat="43.21276" lon="5.49384">
        <ele>172.92</ele>
        <time>2020-03-06T08:48:37Z</time>
      </trkpt>
      <trkpt lat="43.21263" lon="5.49374">
        <ele>172.85</ele>
        <time>2020-03-06T08:48:51Z</time>
      </trkpt>
      <trkpt lat="43.21256" lon="5.49367">
        <ele>173.24</ele>
        <time>2020-03-06T08:48:58Z</time>
      </trkpt>
      <trkpt lat="43.21254" lon="5.49365">
        <ele>173.39</ele>
        <time>2020-03-06T08:49:00Z</time>
      </trkpt>
      <trkpt lat="43.21238" lon="5.49347">
        <ele>174.95</ele>
        <time>2020-03-06T08:49:16Z</time>
      </trkpt>
      <trkpt lat="43.21235" lon="5.49345">
        <ele>175.15</ele>
        <time>2020-03-06T08:49:19Z</time>
      </trkpt>
      <trkpt lat="43.21228" lon="5.49334">
        <ele>175.49</ele>
        <time>2020-03-06T08:49:25Z</time>
      </trkpt>
      <trkpt lat="43.21225" lon="5.49328">
        <ele>175.57</ele>
        <time>2020-03-06T08:49:28Z</time>
      </trkpt>
      <trkpt lat="43.21219" lon="5.49317">
        <ele>175.65</ele>
        <time>2020-03-06T08:49:35Z</time>
      </trkpt>
      <trkpt lat="43.21212" lon="5.49308">
        <ele>175.65</ele>
        <time>2020-03-06T08:49:44Z</time>
      </trkpt>
      <trkpt lat="43.21208" lon="5.49305">
        <ele>175.69</ele>
        <time>2020-03-06T08:49:47Z</time>
      </trkpt>
      <trkpt lat="43.21202" lon="5.49298">
        <ele>175.96</ele>
        <time>2020-03-06T08:49:53Z</time>
      </trkpt>
      <trkpt lat="43.21187" lon="5.49273">
        <ele>176.09</ele>
        <time>2020-03-06T08:50:09Z</time>
      </trkpt>
      <trkpt lat="43.21176" lon="5.49251">
        <ele>175.2</ele>
        <time>2020-03-06T08:50:22Z</time>
      </trkpt>
      <trkpt lat="43.21174" lon="5.49219">
        <ele>174.41</ele>
        <time>2020-03-06T08:50:37Z</time>
      </trkpt>
      <trkpt lat="43.21173" lon="5.49212">
        <ele>174.53</ele>
        <time>2020-03-06T08:50:39Z</time>
      </trkpt>
      <trkpt lat="43.21173" lon="5.49194">
        <ele>174.18</ele>
        <time>2020-03-06T08:50:47Z</time>
      </trkpt>
      <trkpt lat="43.21174" lon="5.49165">
        <ele>172.72</ele>
        <time>2020-03-06T08:51:01Z</time>
      </trkpt>
      <trkpt lat="43.2118" lon="5.49148">
        <ele>171.47</ele>
        <time>2020-03-06T08:51:10Z</time>
      </trkpt>
      <trkpt lat="43.21186" lon="5.49122">
        <ele>171.14</ele>
        <time>2020-03-06T08:51:23Z</time>
      </trkpt>
      <trkpt lat="43.21188" lon="5.49101">
        <ele>170.88</ele>
        <time>2020-03-06T08:51:34Z</time>
      </trkpt>
      <trkpt lat="43.21188" lon="5.49096">
        <ele>170.56</ele>
        <time>2020-03-06T08:51:37Z</time>
      </trkpt>
      <trkpt lat="43.2119" lon="5.4909">
        <ele>169.96</ele>
        <time>2020-03-06T08:51:41Z</time>
      </trkpt>
      <trkpt lat="43.21194" lon="5.49065">
        <ele>168.95</ele>
        <time>2020-03-06T08:51:50Z</time>
      </trkpt>
      <trkpt lat="43.21201" lon="5.49045">
        <ele>167.89</ele>
        <time>2020-03-06T08:52:02Z</time>
      </trkpt>
      <trkpt lat="43.21187" lon="5.49029">
        <ele>167.1</ele>
        <time>2020-03-06T08:52:14Z</time>
      </trkpt>
      <trkpt lat="43.21186" lon="5.49029">
        <ele>167.01</ele>
        <time>2020-03-06T08:52:15Z</time>
      </trkpt>
      <trkpt lat="43.21173" lon="5.49036">
        <ele>166.42</ele>
        <time>2020-03-06T08:52:25Z</time>
      </trkpt>
      <trkpt lat="43.21164" lon="5.49035">
        <ele>166.31</ele>
        <time>2020-03-06T08:52:30Z</time>
      </trkpt>
      <trkpt lat="43.21144" lon="5.49043">
        <ele>167.54</ele>
        <time>2020-03-06T08:52:46Z</time>
      </trkpt>
      <trkpt lat="43.21124" lon="5.49049">
        <ele>169.1</ele>
        <time>2020-03-06T08:52:59Z</time>
      </trkpt>
      <trkpt lat="43.21123" lon="5.49049">
        <ele>169.22</ele>
        <time>2020-03-06T08:53:00Z</time>
      </trkpt>
      <trkpt lat="43.2112" lon="5.4905">
        <ele>169.43</ele>
        <time>2020-03-06T08:53:03Z</time>
      </trkpt>
      <trkpt lat="43.21102" lon="5.4906">
        <ele>170.63</ele>
        <time>2020-03-06T08:53:17Z</time>
      </trkpt>
      <trkpt lat="43.21085" lon="5.49069">
        <ele>172.35</ele>
        <time>2020-03-06T08:53:30Z</time>
      </trkpt>
      <trkpt lat="43.21078" lon="5.49074">
        <ele>172.25</ele>
        <time>2020-03-06T08:53:34Z</time>
      </trkpt>
      <trkpt lat="43.21071" lon="5.49078">
        <ele>172.18</ele>
        <time>2020-03-06T08:53:39Z</time>
      </trkpt>
      <trkpt lat="43.21054" lon="5.49089">
        <ele>172.57</ele>
        <time>2020-03-06T08:53:52Z</time>
      </trkpt>
      <trkpt lat="43.21048" lon="5.49094">
        <ele>172.66</ele>
        <time>2020-03-06T08:53:57Z</time>
      </trkpt>
      <trkpt lat="43.21035" lon="5.49108">
        <ele>172.57</ele>
        <time>2020-03-06T08:54:10Z</time>
      </trkpt>
      <trkpt lat="43.21018" lon="5.49122">
        <ele>171.92</ele>
        <time>2020-03-06T08:54:23Z</time>
      </trkpt>
      <trkpt lat="43.21016" lon="5.49123">
        <ele>171.77</ele>
        <time>2020-03-06T08:54:25Z</time>
      </trkpt>
      <trkpt lat="43.21015" lon="5.49125">
        <ele>171.69</ele>
        <time>2020-03-06T08:54:27Z</time>
      </trkpt>
      <trkpt lat="43.2101" lon="5.4913">
        <ele>171.52</ele>
        <time>2020-03-06T08:54:31Z</time>
      </trkpt>
      <trkpt lat="43.21008" lon="5.49132">
        <ele>171.45</ele>
        <time>2020-03-06T08:54:33Z</time>
      </trkpt>
      <trkpt lat="43.20998" lon="5.49149">
        <ele>172.55</ele>
        <time>2020-03-06T08:54:50Z</time>
      </trkpt>
      <trkpt lat="43.20984" lon="5.49172">
        <ele>174.71</ele>
        <time>2020-03-06T08:55:10Z</time>
      </trkpt>
      <trkpt lat="43.20976" lon="5.49186">
        <ele>177.84</ele>
        <time>2020-03-06T08:55:25Z</time>
      </trkpt>
      <trkpt lat="43.20964" lon="5.49213">
        <ele>180.56</ele>
        <time>2020-03-06T08:55:45Z</time>
      </trkpt>
      <trkpt lat="43.20953" lon="5.49238">
        <ele>183.71</ele>
        <time>2020-03-06T08:56:03Z</time>
      </trkpt>
      <trkpt lat="43.20939" lon="5.49256">
        <ele>186.75</ele>
        <time>2020-03-06T08:56:18Z</time>
      </trkpt>
      <trkpt lat="43.20938" lon="5.49258">
        <ele>186.83</ele>
        <time>2020-03-06T08:56:19Z</time>
      </trkpt>
      <trkpt lat="43.20924" lon="5.49263">
        <ele>186.88</ele>
        <time>2020-03-06T08:56:29Z</time>
      </trkpt>
      <trkpt lat="43.20907" lon="5.49274">
        <ele>187.04</ele>
        <time>2020-03-06T08:56:43Z</time>
      </trkpt>
      <trkpt lat="43.20892" lon="5.49286">
        <ele>186.06</ele>
        <time>2020-03-06T08:56:56Z</time>
      </trkpt>
      <trkpt lat="43.20868" lon="5.49295">
        <ele>184.07</ele>
        <time>2020-03-06T08:57:12Z</time>
      </trkpt>
      <trkpt lat="43.20858" lon="5.49299">
        <ele>183.03</ele>
        <time>2020-03-06T08:57:20Z</time>
      </trkpt>
      <trkpt lat="43.2085" lon="5.49301">
        <ele>182.27</ele>
        <time>2020-03-06T08:57:25Z</time>
      </trkpt>
      <trkpt lat="43.20832" lon="5.49308">
        <ele>181.07</ele>
        <time>2020-03-06T08:57:37Z</time>
      </trkpt>
      <trkpt lat="43.20822" lon="5.49311">
        <ele>180.35</ele>
        <time>2020-03-06T08:57:44Z</time>
      </trkpt>
      <trkpt lat="43.20804" lon="5.49319">
        <ele>178.6</ele>
        <time>2020-03-06T08:57:56Z</time>
      </trkpt>
      <trkpt lat="43.2078" lon="5.49325">
        <ele>176.5</ele>
        <time>2020-03-06T08:58:13Z</time>
      </trkpt>
      <trkpt lat="43.20761" lon="5.4933">
        <ele>174.2</ele>
        <time>2020-03-06T08:58:27Z</time>
      </trkpt>
      <trkpt lat="43.20748" lon="5.49332">
        <ele>173</ele>
        <time>2020-03-06T08:58:36Z</time>
      </trkpt>
      <trkpt lat="43.20742" lon="5.49333">
        <ele>172.33</ele>
        <time>2020-03-06T08:58:40Z</time>
      </trkpt>
      <trkpt lat="43.20722" lon="5.49333">
        <ele>170.36</ele>
        <time>2020-03-06T08:58:54Z</time>
      </trkpt>
      <trkpt lat="43.20717" lon="5.49333">
        <ele>169.79</ele>
        <time>2020-03-06T08:58:58Z</time>
      </trkpt>
      <trkpt lat="43.20693" lon="5.4934">
        <ele>168.51</ele>
        <time>2020-03-06T08:59:14Z</time>
      </trkpt>
      <trkpt lat="43.20691" lon="5.49339">
        <ele>168.63</ele>
        <time>2020-03-06T08:59:16Z</time>
      </trkpt>
      <trkpt lat="43.20687" lon="5.49339">
        <ele>169.15</ele>
        <time>2020-03-06T08:59:19Z</time>
      </trkpt>
      <trkpt lat="43.20684" lon="5.4934">
        <ele>169.46</ele>
        <time>2020-03-06T08:59:22Z</time>
      </trkpt>
      <trkpt lat="43.20672" lon="5.49341">
        <ele>169.53</ele>
        <time>2020-03-06T08:59:31Z</time>
      </trkpt>
      <trkpt lat="43.20662" lon="5.4934">
        <ele>169.9</ele>
        <time>2020-03-06T08:59:38Z</time>
      </trkpt>
      <trkpt lat="43.20644" lon="5.49341">
        <ele>171.33</ele>
        <time>2020-03-06T08:59:51Z</time>
      </trkpt>
      <trkpt lat="43.20643" lon="5.49341">
        <ele>171.47</ele>
        <time>2020-03-06T08:59:52Z</time>
      </trkpt>
      <trkpt lat="43.20637" lon="5.49337">
        <ele>172.06</ele>
        <time>2020-03-06T08:59:56Z</time>
      </trkpt>
      <trkpt lat="43.20618" lon="5.49338">
        <ele>173.51</ele>
        <time>2020-03-06T09:00:10Z</time>
      </trkpt>
      <trkpt lat="43.20603" lon="5.49342">
        <ele>174.46</ele>
        <time>2020-03-06T09:00:23Z</time>
      </trkpt>
      <trkpt lat="43.20588" lon="5.49349">
        <ele>175.42</ele>
        <time>2020-03-06T09:00:32Z</time>
      </trkpt>
      <trkpt lat="43.2057" lon="5.49353">
        <ele>176.05</ele>
        <time>2020-03-06T09:00:42Z</time>
      </trkpt>
      <trkpt lat="43.20561" lon="5.49354">
        <ele>176.36</ele>
        <time>2020-03-06T09:00:48Z</time>
      </trkpt>
      <trkpt lat="43.20553" lon="5.49354">
        <ele>176.35</ele>
        <time>2020-03-06T09:00:52Z</time>
      </trkpt>
      <trkpt lat="43.20533" lon="5.49358">
        <ele>177.06</ele>
        <time>2020-03-06T09:01:05Z</time>
      </trkpt>
      <trkpt lat="43.20514" lon="5.49359">
        <ele>176.89</ele>
        <time>2020-03-06T09:01:19Z</time>
      </trkpt>
      <trkpt lat="43.20499" lon="5.49353">
        <ele>176.1</ele>
        <time>2020-03-06T09:01:31Z</time>
      </trkpt>
      <trkpt lat="43.20492" lon="5.49353">
        <ele>175.7</ele>
        <time>2020-03-06T09:01:37Z</time>
      </trkpt>
      <trkpt lat="43.20479" lon="5.49352">
        <ele>173.95</ele>
        <time>2020-03-06T09:01:49Z</time>
      </trkpt>
      <trkpt lat="43.20466" lon="5.49359">
        <ele>171.54</ele>
        <time>2020-03-06T09:02:03Z</time>
      </trkpt>
      <trkpt lat="43.20446" lon="5.49367">
        <ele>168.69</ele>
        <time>2020-03-06T09:02:25Z</time>
      </trkpt>
      <trkpt lat="43.20434" lon="5.49365">
        <ele>167.22</ele>
        <time>2020-03-06T09:02:37Z</time>
      </trkpt>
      <trkpt lat="43.20423" lon="5.49371">
        <ele>165.25</ele>
        <time>2020-03-06T09:02:54Z</time>
      </trkpt>
      <trkpt lat="43.20423" lon="5.49362">
        <ele>164.74</ele>
        <time>2020-03-06T09:03:11Z</time>
      </trkpt>
      <trkpt lat="43.20417" lon="5.49351">
        <ele>162.13</ele>
        <time>2020-03-06T09:03:32Z</time>
      </trkpt>
      <trkpt lat="43.20415" lon="5.49345">
        <ele>161.47</ele>
        <time>2020-03-06T09:03:56Z</time>
      </trkpt>
      <trkpt lat="43.2041" lon="5.49344">
        <ele>161.3</ele>
        <time>2020-03-06T09:04:20Z</time>
      </trkpt>
      <trkpt lat="43.20412" lon="5.49344">
        <ele>161.69</ele>
        <time>2020-03-06T09:04:45Z</time>
      </trkpt>
      <trkpt lat="43.20418" lon="5.49355">
        <ele>163.89</ele>
        <time>2020-03-06T09:05:05Z</time>
      </trkpt>
      <trkpt lat="43.2042" lon="5.49367">
        <ele>165.23</ele>
        <time>2020-03-06T09:05:15Z</time>
      </trkpt>
      <trkpt lat="43.20411" lon="5.49386">
        <ele>165.5</ele>
        <time>2020-03-06T09:05:29Z</time>
      </trkpt>
      <trkpt lat="43.20409" lon="5.49406">
        <ele>165.97</ele>
        <time>2020-03-06T09:05:44Z</time>
      </trkpt>
      <trkpt lat="43.20406" lon="5.49415">
        <ele>165.45</ele>
        <time>2020-03-06T09:05:58Z</time>
      </trkpt>
      <trkpt lat="43.20404" lon="5.49426">
        <ele>164.52</ele>
        <time>2020-03-06T09:06:12Z</time>
      </trkpt>
      <trkpt lat="43.20403" lon="5.49434">
        <ele>161.42</ele>
        <time>2020-03-06T09:06:27Z</time>
      </trkpt>
      <trkpt lat="43.20401" lon="5.49438">
        <ele>160.99</ele>
        <time>2020-03-06T09:06:50Z</time>
      </trkpt>
      <trkpt lat="43.20398" lon="5.49441">
        <ele>160.59</ele>
        <time>2020-03-06T09:07:22Z</time>
      </trkpt>
      <trkpt lat="43.20399" lon="5.49438">
        <ele>161.81</ele>
        <time>2020-03-06T09:07:50Z</time>
      </trkpt>
      <trkpt lat="43.20404" lon="5.49427">
        <ele>164.27</ele>
        <time>2020-03-06T09:08:07Z</time>
      </trkpt>
      <trkpt lat="43.20406" lon="5.49423">
        <ele>164.78</ele>
        <time>2020-03-06T09:08:10Z</time>
      </trkpt>
      <trkpt lat="43.20408" lon="5.49416">
        <ele>165.01</ele>
        <time>2020-03-06T09:08:17Z</time>
      </trkpt>
      <trkpt lat="43.20409" lon="5.4941">
        <ele>165.25</ele>
        <time>2020-03-06T09:08:21Z</time>
      </trkpt>
      <trkpt lat="43.20417" lon="5.4939">
        <ele>166.2</ele>
        <time>2020-03-06T09:08:36Z</time>
      </trkpt>
      <trkpt lat="43.20418" lon="5.49389">
        <ele>166.26</ele>
        <time>2020-03-06T09:08:37Z</time>
      </trkpt>
      <trkpt lat="43.2043" lon="5.49376">
        <ele>166.14</ele>
        <time>2020-03-06T09:08:52Z</time>
      </trkpt>
      <trkpt lat="43.20447" lon="5.49373">
        <ele>168.81</ele>
        <time>2020-03-06T09:09:11Z</time>
      </trkpt>
      <trkpt lat="43.20461" lon="5.49362">
        <ele>170.88</ele>
        <time>2020-03-06T09:09:24Z</time>
      </trkpt>
      <trkpt lat="43.20475" lon="5.49354">
        <ele>173.28</ele>
        <time>2020-03-06T09:09:40Z</time>
      </trkpt>
      <trkpt lat="43.20478" lon="5.49354">
        <ele>174.34</ele>
        <time>2020-03-06T09:09:44Z</time>
      </trkpt>
      <trkpt lat="43.20486" lon="5.49355">
        <ele>175.57</ele>
        <time>2020-03-06T09:09:50Z</time>
      </trkpt>
      <trkpt lat="43.20494" lon="5.49354">
        <ele>176.12</ele>
        <time>2020-03-06T09:09:56Z</time>
      </trkpt>
      <trkpt lat="43.20516" lon="5.49358">
        <ele>177.03</ele>
        <time>2020-03-06T09:10:11Z</time>
      </trkpt>
      <trkpt lat="43.20532" lon="5.49361">
        <ele>176.4</ele>
        <time>2020-03-06T09:10:23Z</time>
      </trkpt>
      <trkpt lat="43.2054" lon="5.49361">
        <ele>176.26</ele>
        <time>2020-03-06T09:10:28Z</time>
      </trkpt>
      <trkpt lat="43.20568" lon="5.4936">
        <ele>175.51</ele>
        <time>2020-03-06T09:10:45Z</time>
      </trkpt>
      <trkpt lat="43.20591" lon="5.49354">
        <ele>175.82</ele>
        <time>2020-03-06T09:11:01Z</time>
      </trkpt>
      <trkpt lat="43.20608" lon="5.49347">
        <ele>174.01</ele>
        <time>2020-03-06T09:11:16Z</time>
      </trkpt>
      <trkpt lat="43.20628" lon="5.49345">
        <ele>171.81</ele>
        <time>2020-03-06T09:11:33Z</time>
      </trkpt>
      <trkpt lat="43.20649" lon="5.49346">
        <ele>171.27</ele>
        <time>2020-03-06T09:11:45Z</time>
      </trkpt>
      <trkpt lat="43.20677" lon="5.49346">
        <ele>169.82</ele>
        <time>2020-03-06T09:12:00Z</time>
      </trkpt>
      <trkpt lat="43.20703" lon="5.49343">
        <ele>169.12</ele>
        <time>2020-03-06T09:12:16Z</time>
      </trkpt>
      <trkpt lat="43.20723" lon="5.49337">
        <ele>169.79</ele>
        <time>2020-03-06T09:12:31Z</time>
      </trkpt>
      <trkpt lat="43.20742" lon="5.49335">
        <ele>170.81</ele>
        <time>2020-03-06T09:12:45Z</time>
      </trkpt>
      <trkpt lat="43.20755" lon="5.49334">
        <ele>172.73</ele>
        <time>2020-03-06T09:13:00Z</time>
      </trkpt>
      <trkpt lat="43.2076" lon="5.49333">
        <ele>172.75</ele>
        <time>2020-03-06T09:13:04Z</time>
      </trkpt>
      <trkpt lat="43.20781" lon="5.49326">
        <ele>174.36</ele>
        <time>2020-03-06T09:13:20Z</time>
      </trkpt>
      <trkpt lat="43.20788" lon="5.49324">
        <ele>175.14</ele>
        <time>2020-03-06T09:13:25Z</time>
      </trkpt>
      <trkpt lat="43.20806" lon="5.49317">
        <ele>176.76</ele>
        <time>2020-03-06T09:13:39Z</time>
      </trkpt>
      <trkpt lat="43.20812" lon="5.49316">
        <ele>177.28</ele>
        <time>2020-03-06T09:13:43Z</time>
      </trkpt>
      <trkpt lat="43.20815" lon="5.49314">
        <ele>177.84</ele>
        <time>2020-03-06T09:13:46Z</time>
      </trkpt>
      <trkpt lat="43.20832" lon="5.49309">
        <ele>180.11</ele>
        <time>2020-03-06T09:14:01Z</time>
      </trkpt>
      <trkpt lat="43.20852" lon="5.49303">
        <ele>181.6</ele>
        <time>2020-03-06T09:14:16Z</time>
      </trkpt>
      <trkpt lat="43.20872" lon="5.49294">
        <ele>183.39</ele>
        <time>2020-03-06T09:14:31Z</time>
      </trkpt>
      <trkpt lat="43.20876" lon="5.49293">
        <ele>183.68</ele>
        <time>2020-03-06T09:14:34Z</time>
      </trkpt>
      <trkpt lat="43.20892" lon="5.49286">
        <ele>184.56</ele>
        <time>2020-03-06T09:14:48Z</time>
      </trkpt>
      <trkpt lat="43.20896" lon="5.49284">
        <ele>184.7</ele>
        <time>2020-03-06T09:14:51Z</time>
      </trkpt>
      <trkpt lat="43.20914" lon="5.49276">
        <ele>185.73</ele>
        <time>2020-03-06T09:15:05Z</time>
      </trkpt>
      <trkpt lat="43.2093" lon="5.49268">
        <ele>185.95</ele>
        <time>2020-03-06T09:15:19Z</time>
      </trkpt>
      <trkpt lat="43.2095" lon="5.4925">
        <ele>185.11</ele>
        <time>2020-03-06T09:15:34Z</time>
      </trkpt>
      <trkpt lat="43.2096" lon="5.49233">
        <ele>182.48</ele>
        <time>2020-03-06T09:15:46Z</time>
      </trkpt>
      <trkpt lat="43.20961" lon="5.49232">
        <ele>182.22</ele>
        <time>2020-03-06T09:15:47Z</time>
      </trkpt>
      <trkpt lat="43.20962" lon="5.49227">
        <ele>181.24</ele>
        <time>2020-03-06T09:15:50Z</time>
      </trkpt>
      <trkpt lat="43.20965" lon="5.49222">
        <ele>180.26</ele>
        <time>2020-03-06T09:15:54Z</time>
      </trkpt>
      <trkpt lat="43.20974" lon="5.49205">
        <ele>177.51</ele>
        <time>2020-03-06T09:16:09Z</time>
      </trkpt>
      <trkpt lat="43.20984" lon="5.49187">
        <ele>174.34</ele>
        <time>2020-03-06T09:16:21Z</time>
      </trkpt>
      <trkpt lat="43.20997" lon="5.49164">
        <ele>171.26</ele>
        <time>2020-03-06T09:16:36Z</time>
      </trkpt>
      <trkpt lat="43.21013" lon="5.49138">
        <ele>169.9</ele>
        <time>2020-03-06T09:16:52Z</time>
      </trkpt>
      <trkpt lat="43.21014" lon="5.49137">
        <ele>169.91</ele>
        <time>2020-03-06T09:16:53Z</time>
      </trkpt>
      <trkpt lat="43.2103" lon="5.4913">
        <ele>169.34</ele>
        <time>2020-03-06T09:17:07Z</time>
      </trkpt>
      <trkpt lat="43.21035" lon="5.49131">
        <ele>169.45</ele>
        <time>2020-03-06T09:17:24Z</time>
      </trkpt>
      <trkpt lat="43.21035" lon="5.49136">
        <ele>169.2</ele>
        <time>2020-03-06T09:17:42Z</time>
      </trkpt>
      <trkpt lat="43.21034" lon="5.49142">
        <ele>167.19</ele>
        <time>2020-03-06T09:18:05Z</time>
      </trkpt>
      <trkpt lat="43.21034" lon="5.49149">
        <ele>164.92</ele>
        <time>2020-03-06T09:18:27Z</time>
      </trkpt>
      <trkpt lat="43.21035" lon="5.49154">
        <ele>164.23</ele>
        <time>2020-03-06T09:18:53Z</time>
      </trkpt>
      <trkpt lat="43.21033" lon="5.49143">
        <ele>166.03</ele>
        <time>2020-03-06T09:19:11Z</time>
      </trkpt>
      <trkpt lat="43.21032" lon="5.49134">
        <ele>167.84</ele>
        <time>2020-03-06T09:19:19Z</time>
      </trkpt>
      <trkpt lat="43.21039" lon="5.49119">
        <ele>169.64</ele>
        <time>2020-03-06T09:19:35Z</time>
      </trkpt>
      <trkpt lat="43.21052" lon="5.49114">
        <ele>168.48</ele>
        <time>2020-03-06T09:19:58Z</time>
      </trkpt>
      <trkpt lat="43.2107" lon="5.49111">
        <ele>165.95</ele>
        <time>2020-03-06T09:20:18Z</time>
      </trkpt>
      <trkpt lat="43.21091" lon="5.49104">
        <ele>162.99</ele>
        <time>2020-03-06T09:20:37Z</time>
      </trkpt>
      <trkpt lat="43.21108" lon="5.49101">
        <ele>160.13</ele>
        <time>2020-03-06T09:20:56Z</time>
      </trkpt>
      <trkpt lat="43.2113" lon="5.49101">
        <ele>157.11</ele>
        <time>2020-03-06T09:21:11Z</time>
      </trkpt>
      <trkpt lat="43.21129" lon="5.49111">
        <ele>154.26</ele>
        <time>2020-03-06T09:21:22Z</time>
      </trkpt>
      <trkpt lat="43.21119" lon="5.49127">
        <ele>151.02</ele>
        <time>2020-03-06T09:21:39Z</time>
      </trkpt>
      <trkpt lat="43.2111" lon="5.49141">
        <ele>148.62</ele>
        <time>2020-03-06T09:21:52Z</time>
      </trkpt>
      <trkpt lat="43.21094" lon="5.49163">
        <ele>146.11</ele>
        <time>2020-03-06T09:22:10Z</time>
      </trkpt>
      <trkpt lat="43.2108" lon="5.49184">
        <ele>143.46</ele>
        <time>2020-03-06T09:22:27Z</time>
      </trkpt>
      <trkpt lat="43.21072" lon="5.49195">
        <ele>140.41</ele>
        <time>2020-03-06T09:22:40Z</time>
      </trkpt>
      <trkpt lat="43.21067" lon="5.49218">
        <ele>137.35</ele>
        <time>2020-03-06T09:22:55Z</time>
      </trkpt>
      <trkpt lat="43.21067" lon="5.49236">
        <ele>135.8</ele>
        <time>2020-03-06T09:23:06Z</time>
      </trkpt>
      <trkpt lat="43.21073" lon="5.49258">
        <ele>132.46</ele>
        <time>2020-03-06T09:23:24Z</time>
      </trkpt>
      <trkpt lat="43.21078" lon="5.49277">
        <ele>129.48</ele>
        <time>2020-03-06T09:23:35Z</time>
      </trkpt>
      <trkpt lat="43.21078" lon="5.49283">
        <ele>128.7</ele>
        <time>2020-03-06T09:23:38Z</time>
      </trkpt>
      <trkpt lat="43.21083" lon="5.49305">
        <ele>125.46</ele>
        <time>2020-03-06T09:23:53Z</time>
      </trkpt>
      <trkpt lat="43.21087" lon="5.49333">
        <ele>122.96</ele>
        <time>2020-03-06T09:24:12Z</time>
      </trkpt>
      <trkpt lat="43.21092" lon="5.49348">
        <ele>121.15</ele>
        <time>2020-03-06T09:24:22Z</time>
      </trkpt>
      <trkpt lat="43.21101" lon="5.49382">
        <ele>118.01</ele>
        <time>2020-03-06T09:24:42Z</time>
      </trkpt>
      <trkpt lat="43.2111" lon="5.49403">
        <ele>115.83</ele>
        <time>2020-03-06T09:24:56Z</time>
      </trkpt>
      <trkpt lat="43.21112" lon="5.49407">
        <ele>115.29</ele>
        <time>2020-03-06T09:24:59Z</time>
      </trkpt>
      <trkpt lat="43.21118" lon="5.49427">
        <ele>112.66</ele>
        <time>2020-03-06T09:25:13Z</time>
      </trkpt>
      <trkpt lat="43.21123" lon="5.49448">
        <ele>109.58</ele>
        <time>2020-03-06T09:25:29Z</time>
      </trkpt>
      <trkpt lat="43.2112" lon="5.4947">
        <ele>106.57</ele>
        <time>2020-03-06T09:25:46Z</time>
      </trkpt>
      <trkpt lat="43.21118" lon="5.49485">
        <ele>103.55</ele>
        <time>2020-03-06T09:25:59Z</time>
      </trkpt>
      <trkpt lat="43.21117" lon="5.49508">
        <ele>100.52</ele>
        <time>2020-03-06T09:26:13Z</time>
      </trkpt>
      <trkpt lat="43.21117" lon="5.4953">
        <ele>97.41</ele>
        <time>2020-03-06T09:26:25Z</time>
      </trkpt>
      <trkpt lat="43.21125" lon="5.4955">
        <ele>94.26</ele>
        <time>2020-03-06T09:26:42Z</time>
      </trkpt>
      <trkpt lat="43.21133" lon="5.49563">
        <ele>91.18</ele>
        <time>2020-03-06T09:26:56Z</time>
      </trkpt>
      <trkpt lat="43.21131" lon="5.4957">
        <ele>88.13</ele>
        <time>2020-03-06T09:27:06Z</time>
      </trkpt>
      <trkpt lat="43.21129" lon="5.4958">
        <ele>85.7</ele>
        <time>2020-03-06T09:27:17Z</time>
      </trkpt>
      <trkpt lat="43.21129" lon="5.49596">
        <ele>82.66</ele>
        <time>2020-03-06T09:27:28Z</time>
      </trkpt>
      <trkpt lat="43.21133" lon="5.49611">
        <ele>79.51</ele>
        <time>2020-03-06T09:27:39Z</time>
      </trkpt>
      <trkpt lat="43.21134" lon="5.49616">
        <ele>78.63</ele>
        <time>2020-03-06T09:27:42Z</time>
      </trkpt>
      <trkpt lat="43.21144" lon="5.49633">
        <ele>75.11</ele>
        <time>2020-03-06T09:27:54Z</time>
      </trkpt>
      <trkpt lat="43.21152" lon="5.4965">
        <ele>72.05</ele>
        <time>2020-03-06T09:28:07Z</time>
      </trkpt>
      <trkpt lat="43.2116" lon="5.49655">
        <ele>69.84</ele>
        <time>2020-03-06T09:28:19Z</time>
      </trkpt>
      <trkpt lat="43.21152" lon="5.49672">
        <ele>68.31</ele>
        <time>2020-03-06T09:28:32Z</time>
      </trkpt>
      <trkpt lat="43.21143" lon="5.4969">
        <ele>65.02</ele>
        <time>2020-03-06T09:28:48Z</time>
      </trkpt>
      <trkpt lat="43.21142" lon="5.4969">
        <ele>64.85</ele>
        <time>2020-03-06T09:28:49Z</time>
      </trkpt>
      <trkpt lat="43.21138" lon="5.49708">
        <ele>62.92</ele>
        <time>2020-03-06T09:29:03Z</time>
      </trkpt>
      <trkpt lat="43.21122" lon="5.49719">
        <ele>60.92</ele>
        <time>2020-03-06T09:29:17Z</time>
      </trkpt>
      <trkpt lat="43.21104" lon="5.49706">
        <ele>59.82</ele>
        <time>2020-03-06T09:29:33Z</time>
      </trkpt>
      <trkpt lat="43.21096" lon="5.49698">
        <ele>59.32</ele>
        <time>2020-03-06T09:29:40Z</time>
      </trkpt>
      <trkpt lat="43.21079" lon="5.49685">
        <ele>57.97</ele>
        <time>2020-03-06T09:29:53Z</time>
      </trkpt>
      <trkpt lat="43.21066" lon="5.49678">
        <ele>57.16</ele>
        <time>2020-03-06T09:30:03Z</time>
      </trkpt>
      <trkpt lat="43.21033" lon="5.49676">
        <ele>55.56</ele>
        <time>2020-03-06T09:30:21Z</time>
      </trkpt>
      <trkpt lat="43.21001" lon="5.49712">
        <ele>53.84</ele>
        <time>2020-03-06T09:30:45Z</time>
      </trkpt>
      <trkpt lat="43.20994" lon="5.49714">
        <ele>53.47</ele>
        <time>2020-03-06T09:30:50Z</time>
      </trkpt>
      <trkpt lat="43.20985" lon="5.49711">
        <ele>52.55</ele>
        <time>2020-03-06T09:30:57Z</time>
      </trkpt>
      <trkpt lat="43.20977" lon="5.4971">
        <ele>51.75</ele>
        <time>2020-03-06T09:31:03Z</time>
      </trkpt>
      <trkpt lat="43.2097" lon="5.49707">
        <ele>51.27</ele>
        <time>2020-03-06T09:31:08Z</time>
      </trkpt>
      <trkpt lat="43.20957" lon="5.49705">
        <ele>50.4</ele>
        <time>2020-03-06T09:31:18Z</time>
      </trkpt>
      <trkpt lat="43.2094" lon="5.49707">
        <ele>49.41</ele>
        <time>2020-03-06T09:31:29Z</time>
      </trkpt>
      <trkpt lat="43.20927" lon="5.49709">
        <ele>48.51</ele>
        <time>2020-03-06T09:31:37Z</time>
      </trkpt>
      <trkpt lat="43.20911" lon="5.4971">
        <ele>46.69</ele>
        <time>2020-03-06T09:31:47Z</time>
      </trkpt>
      <trkpt lat="43.20893" lon="5.49709">
        <ele>44.92</ele>
        <time>2020-03-06T09:31:58Z</time>
      </trkpt>
      <trkpt lat="43.20887" lon="5.49708">
        <ele>44.57</ele>
        <time>2020-03-06T09:32:01Z</time>
      </trkpt>
      <trkpt lat="43.20879" lon="5.4971">
        <ele>43.58</ele>
        <time>2020-03-06T09:32:07Z</time>
      </trkpt>
      <trkpt lat="43.20862" lon="5.49715">
        <ele>42.45</ele>
        <time>2020-03-06T09:32:16Z</time>
      </trkpt>
      <trkpt lat="43.20855" lon="5.49722">
        <ele>41.8</ele>
        <time>2020-03-06T09:32:20Z</time>
      </trkpt>
      <trkpt lat="43.20837" lon="5.49732">
        <ele>40.44</ele>
        <time>2020-03-06T09:32:32Z</time>
      </trkpt>
      <trkpt lat="43.20829" lon="5.49732">
        <ele>40.04</ele>
        <time>2020-03-06T09:32:36Z</time>
      </trkpt>
      <trkpt lat="43.20809" lon="5.49744">
        <ele>38.29</ele>
        <time>2020-03-06T09:32:50Z</time>
      </trkpt>
      <trkpt lat="43.20782" lon="5.49769">
        <ele>36.31</ele>
        <time>2020-03-06T09:33:10Z</time>
      </trkpt>
      <trkpt lat="43.2076" lon="5.49805">
        <ele>36.4</ele>
        <time>2020-03-06T09:33:31Z</time>
      </trkpt>
      <trkpt lat="43.20751" lon="5.49817">
        <ele>34.9</ele>
        <time>2020-03-06T09:33:40Z</time>
      </trkpt>
      <trkpt lat="43.20734" lon="5.49829">
        <ele>32.25</ele>
        <time>2020-03-06T09:33:56Z</time>
      </trkpt>
      <trkpt lat="43.20722" lon="5.49835">
        <ele>31.11</ele>
        <time>2020-03-06T09:34:05Z</time>
      </trkpt>
      <trkpt lat="43.20704" lon="5.49842">
        <ele>29.83</ele>
        <time>2020-03-06T09:34:15Z</time>
      </trkpt>
      <trkpt lat="43.20696" lon="5.49849">
        <ele>28.7</ele>
        <time>2020-03-06T09:34:20Z</time>
      </trkpt>
      <trkpt lat="43.20693" lon="5.4985">
        <ele>28.46</ele>
        <time>2020-03-06T09:34:22Z</time>
      </trkpt>
      <trkpt lat="43.20675" lon="5.49864">
        <ele>26.36</ele>
        <time>2020-03-06T09:34:39Z</time>
      </trkpt>
      <trkpt lat="43.20641" lon="5.49892">
        <ele>23.04</ele>
        <time>2020-03-06T09:35:00Z</time>
      </trkpt>
      <trkpt lat="43.20623" lon="5.49894">
        <ele>20.99</ele>
        <time>2020-03-06T09:35:12Z</time>
      </trkpt>
      <trkpt lat="43.20622" lon="5.49894">
        <ele>20.86</ele>
        <time>2020-03-06T09:35:13Z</time>
      </trkpt>
      <trkpt lat="43.20608" lon="5.49896">
        <ele>20.61</ele>
        <time>2020-03-06T09:35:34Z</time>
      </trkpt>
      <trkpt lat="43.20594" lon="5.499">
        <ele>20.6</ele>
        <time>2020-03-06T09:35:42Z</time>
      </trkpt>
      <trkpt lat="43.20589" lon="5.49895">
        <ele>20.28</ele>
        <time>2020-03-06T09:35:51Z</time>
      </trkpt>
      <trkpt lat="43.20587" lon="5.4988">
        <ele>19.45</ele>
        <time>2020-03-06T09:36:01Z</time>
      </trkpt>
      <trkpt lat="43.20589" lon="5.49865">
        <ele>18.95</ele>
        <time>2020-03-06T09:36:08Z</time>
      </trkpt>
      <trkpt lat="43.20592" lon="5.4986">
        <ele>18.72</ele>
        <time>2020-03-06T09:36:11Z</time>
      </trkpt>
      <trkpt lat="43.20622" lon="5.49846">
        <ele>18.2</ele>
        <time>2020-03-06T09:36:22Z</time>
      </trkpt>
      <trkpt lat="43.20639" lon="5.49834">
        <ele>17.1</ele>
        <time>2020-03-06T09:36:32Z</time>
      </trkpt>
      <trkpt lat="43.2065" lon="5.49802">
        <ele>16.07</ele>
        <time>2020-03-06T09:36:50Z</time>
      </trkpt>
      <trkpt lat="43.20642" lon="5.49763">
        <ele>15.31</ele>
        <time>2020-03-06T09:37:09Z</time>
      </trkpt>
      <trkpt lat="43.20643" lon="5.49727">
        <ele>14.22</ele>
        <time>2020-03-06T09:37:26Z</time>
      </trkpt>
      <trkpt lat="43.20641" lon="5.49727">
        <ele>13.48</ele>
        <time>2020-03-06T09:37:30Z</time>
      </trkpt>
      <trkpt lat="43.20618" lon="5.49726">
        <ele>11.4</ele>
        <time>2020-03-06T09:37:51Z</time>
      </trkpt>
      <trkpt lat="43.20602" lon="5.49703">
        <ele>10.43</ele>
        <time>2020-03-06T09:38:10Z</time>
      </trkpt>
      <trkpt lat="43.20584" lon="5.49673">
        <ele>10.48</ele>
        <time>2020-03-06T09:38:29Z</time>
      </trkpt>
      <trkpt lat="43.20561" lon="5.49654">
        <ele>9.38</ele>
        <time>2020-03-06T09:38:43Z</time>
      </trkpt>
      <trkpt lat="43.20554" lon="5.49649">
        <ele>8.9</ele>
        <time>2020-03-06T09:38:48Z</time>
      </trkpt>
      <trkpt lat="43.20542" lon="5.49648">
        <ele>7.41</ele>
        <time>2020-03-06T09:38:57Z</time>
      </trkpt>
      <trkpt lat="43.20529" lon="5.49651">
        <ele>5.78</ele>
        <time>2020-03-06T09:39:05Z</time>
      </trkpt>
      <trkpt lat="43.20514" lon="5.49654">
        <ele>4.66</ele>
        <time>2020-03-06T09:39:20Z</time>
      </trkpt>
      <trkpt lat="43.20513" lon="5.49654">
        <ele>4.64</ele>
        <time>2020-03-06T09:39:21Z</time>
      </trkpt>
      <trkpt lat="43.20501" lon="5.49653">
        <ele>4.19</ele>
        <time>2020-03-06T09:39:31Z</time>
      </trkpt>
      <trkpt lat="43.20496" lon="5.4965">
        <ele>3.76</ele>
        <time>2020-03-06T09:39:34Z</time>
      </trkpt>
      <trkpt lat="43.20491" lon="5.49647">
        <ele>3.16</ele>
        <time>2020-03-06T09:39:38Z</time>
      </trkpt>
      <trkpt lat="43.20489" lon="5.49644">
        <ele>2.81</ele>
        <time>2020-03-06T09:39:40Z</time>
      </trkpt>
      <trkpt lat="43.2048" lon="5.49644">
        <ele>1.97</ele>
        <time>2020-03-06T09:39:45Z</time>
      </trkpt>
      <trkpt lat="43.20476" lon="5.49646">
        <ele>1.61</ele>
        <time>2020-03-06T09:39:47Z</time>
      </trkpt>
      <trkpt lat="43.20466" lon="5.49647">
        <ele>0.02</ele>
        <time>2020-03-06T09:39:54Z</time>
      </trkpt>
      <trkpt lat="43.20462" lon="5.49649">
        <ele>-0.38</ele>
        <time>2020-03-06T09:39:57Z</time>
      </trkpt>
      <trkpt lat="43.20454" lon="5.49646">
        <ele>-0.46</ele>
        <time>2020-03-06T09:40:03Z</time>
      </trkpt>
      <trkpt lat="43.20437" lon="5.4964">
        <ele>8.2</ele>
        <time>2020-03-06T09:40:19Z</time>
      </trkpt>
      <trkpt lat="43.20431" lon="5.49636">
        <ele>0.19</ele>
        <time>2020-03-06T09:40:23Z</time>
      </trkpt>
      <trkpt lat="43.20408" lon="5.49632">
        <ele>-0.41</ele>
        <time>2020-03-06T09:40:36Z</time>
      </trkpt>
      <trkpt lat="43.20401" lon="5.49633">
        <ele>-0.64</ele>
        <time>2020-03-06T09:40:39Z</time>
      </trkpt>
      <trkpt lat="43.20378" lon="5.49645">
        <ele>-2.2</ele>
        <time>2020-03-06T09:40:51Z</time>
      </trkpt>
      <trkpt lat="43.20374" lon="5.49647">
        <ele>-2.34</ele>
        <time>2020-03-06T09:40:53Z</time>
      </trkpt>
      <trkpt lat="43.20355" lon="5.49648">
        <ele>-2.83</ele>
        <time>2020-03-06T09:41:02Z</time>
      </trkpt>
      <trkpt lat="43.20326" lon="5.49652">
        <ele>-3.76</ele>
        <time>2020-03-06T09:41:15Z</time>
      </trkpt>
      <trkpt lat="43.20303" lon="5.49662">
        <ele>-4.32</ele>
        <time>2020-03-06T09:41:31Z</time>
      </trkpt>
      <trkpt lat="43.20277" lon="5.49652">
        <ele>-4.5</ele>
        <time>2020-03-06T09:41:47Z</time>
      </trkpt>
      <trkpt lat="43.20267" lon="5.49672">
        <ele>-4.78</ele>
        <time>2020-03-06T09:42:05Z</time>
      </trkpt>
      <trkpt lat="43.20254" lon="5.49688">
        <ele>-4.98</ele>
        <time>2020-03-06T09:42:20Z</time>
      </trkpt>
      <trkpt lat="43.20255" lon="5.49711">
        <ele>-4.46</ele>
        <time>2020-03-06T09:42:31Z</time>
      </trkpt>
      <trkpt lat="43.20255" lon="5.49716">
        <ele>-4.4</ele>
        <time>2020-03-06T09:42:33Z</time>
      </trkpt>
      <trkpt lat="43.20256" lon="5.49727">
        <ele>-4.25</ele>
        <time>2020-03-06T09:42:38Z</time>
      </trkpt>
      <trkpt lat="43.20251" lon="5.49742">
        <ele>-4.23</ele>
        <time>2020-03-06T09:42:49Z</time>
      </trkpt>
      <trkpt lat="43.20249" lon="5.49745">
        <ele>-4.19</ele>
        <time>2020-03-06T09:42:55Z</time>
      </trkpt>
      <trkpt lat="43.20252" lon="5.49746">
        <ele>-4.19</ele>
        <time>2020-03-06T09:42:58Z</time>
      </trkpt>
      <trkpt lat="43.20256" lon="5.49747">
        <ele>-4.39</ele>
        <time>2020-03-06T09:43:29Z</time>
      </trkpt>
      <trkpt lat="43.20256" lon="5.49746">
        <ele>-4.42</ele>
        <time>2020-03-06T09:43:31Z</time>
      </trkpt>
      <trkpt lat="43.20261" lon="5.49751">
        <ele>-4.9</ele>
        <time>2020-03-06T09:43:55Z</time>
      </trkpt>
      <trkpt lat="43.20261" lon="5.49751">
        <ele>-4.96</ele>
        <time>2020-03-06T09:43:56Z</time>
      </trkpt>
      <trkpt lat="43.20257" lon="5.49773">
        <ele>-5</ele>
        <time>2020-03-06T09:44:15Z</time>
      </trkpt>
      <trkpt lat="43.20239" lon="5.49784">
        <ele>-4.18</ele>
        <time>2020-03-06T09:44:36Z</time>
      </trkpt>
      <trkpt lat="43.20237" lon="5.49785">
        <ele>-4.09</ele>
        <time>2020-03-06T09:44:39Z</time>
      </trkpt>
      <trkpt lat="43.20237" lon="5.49793">
        <ele>-3.55</ele>
        <time>2020-03-06T09:44:52Z</time>
      </trkpt>
      <trkpt lat="43.20241" lon="5.49801">
        <ele>-3.31</ele>
        <time>2020-03-06T09:45:01Z</time>
      </trkpt>
      <trkpt lat="43.20248" lon="5.49804">
        <ele>-3.08</ele>
        <time>2020-03-06T09:45:14Z</time>
      </trkpt>
      <trkpt lat="43.2025" lon="5.49806">
        <ele>-3.09</ele>
        <time>2020-03-06T09:45:18Z</time>
      </trkpt>
      <trkpt lat="43.20252" lon="5.49814">
        <ele>-3.33</ele>
        <time>2020-03-06T09:45:41Z</time>
      </trkpt>
      <trkpt lat="43.20254" lon="5.49821">
        <ele>-3.23</ele>
        <time>2020-03-06T09:45:45Z</time>
      </trkpt>
      <trkpt lat="43.20256" lon="5.49825">
        <ele>-3.17</ele>
        <time>2020-03-06T09:45:49Z</time>
      </trkpt>
      <trkpt lat="43.20263" lon="5.4984">
        <ele>-3.06</ele>
        <time>2020-03-06T09:46:15Z</time>
      </trkpt>
      <trkpt lat="43.20266" lon="5.4985">
        <ele>-3.3</ele>
        <time>2020-03-06T09:46:36Z</time>
      </trkpt>
      <trkpt lat="43.20258" lon="5.49849">
        <ele>-2.57</ele>
        <time>2020-03-06T09:46:56Z</time>
      </trkpt>
      <trkpt lat="43.20256" lon="5.49848">
        <ele>-2.48</ele>
        <time>2020-03-06T09:47:20Z</time>
      </trkpt>
      <trkpt lat="43.20242" lon="5.49812">
        <ele>-3.13</ele>
        <time>2020-03-06T09:47:40Z</time>
      </trkpt>
      <trkpt lat="43.20241" lon="5.4981">
        <ele>-3.16</ele>
        <time>2020-03-06T09:47:41Z</time>
      </trkpt>
      <trkpt lat="43.20231" lon="5.49775">
        <ele>-3.6</ele>
        <time>2020-03-06T09:47:59Z</time>
      </trkpt>
      <trkpt lat="43.20242" lon="5.49756">
        <ele>-4.32</ele>
        <time>2020-03-06T09:48:14Z</time>
      </trkpt>
      <trkpt lat="43.20257" lon="5.49736">
        <ele>-4.24</ele>
        <time>2020-03-06T09:48:24Z</time>
      </trkpt>
      <trkpt lat="43.20258" lon="5.49734">
        <ele>-4.23</ele>
        <time>2020-03-06T09:48:25Z</time>
      </trkpt>
      <trkpt lat="43.20262" lon="5.49728">
        <ele>-4.31</ele>
        <time>2020-03-06T09:48:30Z</time>
      </trkpt>
      <trkpt lat="43.20264" lon="5.49727">
        <ele>-4.35</ele>
        <time>2020-03-06T09:48:31Z</time>
      </trkpt>
      <trkpt lat="43.20265" lon="5.49726">
        <ele>-4.4</ele>
        <time>2020-03-06T09:48:32Z</time>
      </trkpt>
      <trkpt lat="43.20273" lon="5.49719">
        <ele>-4.76</ele>
        <time>2020-03-06T09:48:40Z</time>
      </trkpt>
      <trkpt lat="43.20278" lon="5.49719">
        <ele>-4.9</ele>
        <time>2020-03-06T09:48:44Z</time>
      </trkpt>
      <trkpt lat="43.20279" lon="5.49719">
        <ele>-4.93</ele>
        <time>2020-03-06T09:48:45Z</time>
      </trkpt>
      <trkpt lat="43.20275" lon="5.49715">
        <ele>-4.97</ele>
        <time>2020-03-06T09:48:47Z</time>
      </trkpt>
      <trkpt lat="43.20276" lon="5.49714">
        <ele>-5.01</ele>
        <time>2020-03-06T09:48:48Z</time>
      </trkpt>
      <trkpt lat="43.20275" lon="5.49709">
        <ele>-5.15</ele>
        <time>2020-03-06T09:48:50Z</time>
      </trkpt>
      <trkpt lat="43.20277" lon="5.49709">
        <ele>-5.25</ele>
        <time>2020-03-06T09:48:51Z</time>
      </trkpt>
      <trkpt lat="43.20277" lon="5.49697">
        <ele>-5.53</ele>
        <time>2020-03-06T09:48:55Z</time>
      </trkpt>
      <trkpt lat="43.20278" lon="5.49695">
        <ele>-5.62</ele>
        <time>2020-03-06T09:48:57Z</time>
      </trkpt>
      <trkpt lat="43.20287" lon="5.49691">
        <ele>-5.66</ele>
        <time>2020-03-06T09:49:02Z</time>
      </trkpt>
      <trkpt lat="43.20289" lon="5.49689">
        <ele>-5.64</ele>
        <time>2020-03-06T09:49:03Z</time>
      </trkpt>
      <trkpt lat="43.2029" lon="5.49689">
        <ele>-5.59</ele>
        <time>2020-03-06T09:49:04Z</time>
      </trkpt>
      <trkpt lat="43.20291" lon="5.49688">
        <ele>-5.56</ele>
        <time>2020-03-06T09:49:05Z</time>
      </trkpt>
      <trkpt lat="43.20292" lon="5.49686">
        <ele>-5.51</ele>
        <time>2020-03-06T09:49:06Z</time>
      </trkpt>
      <trkpt lat="43.20292" lon="5.49685">
        <ele>-5.44</ele>
        <time>2020-03-06T09:49:07Z</time>
      </trkpt>
      <trkpt lat="43.20294" lon="5.49683">
        <ele>-5.29</ele>
        <time>2020-03-06T09:49:11Z</time>
      </trkpt>
      <trkpt lat="43.20295" lon="5.49683">
        <ele>-5.24</ele>
        <time>2020-03-06T09:49:12Z</time>
      </trkpt>
      <trkpt lat="43.20296" lon="5.49682">
        <ele>-5.2</ele>
        <time>2020-03-06T09:49:13Z</time>
      </trkpt>
      <trkpt lat="43.20298" lon="5.49681">
        <ele>-5.17</ele>
        <time>2020-03-06T09:49:14Z</time>
      </trkpt>
      <trkpt lat="43.203" lon="5.4968">
        <ele>-5.16</ele>
        <time>2020-03-06T09:49:15Z</time>
      </trkpt>
      <trkpt lat="43.20301" lon="5.49679">
        <ele>-5.18</ele>
        <time>2020-03-06T09:49:16Z</time>
      </trkpt>
      <trkpt lat="43.20304" lon="5.49676">
        <ele>-5.31</ele>
        <time>2020-03-06T09:49:19Z</time>
      </trkpt>
      <trkpt lat="43.20305" lon="5.49676">
        <ele>-5.37</ele>
        <time>2020-03-06T09:49:20Z</time>
      </trkpt>
      <trkpt lat="43.20306" lon="5.49675">
        <ele>-5.43</ele>
        <time>2020-03-06T09:49:21Z</time>
      </trkpt>
      <trkpt lat="43.20307" lon="5.49675">
        <ele>-5.48</ele>
        <time>2020-03-06T09:49:22Z</time>
      </trkpt>
      <trkpt lat="43.20308" lon="5.49674">
        <ele>-5.53</ele>
        <time>2020-03-06T09:49:23Z</time>
      </trkpt>
      <trkpt lat="43.20325" lon="5.49676">
        <ele>-5.4</ele>
        <time>2020-03-06T09:49:33Z</time>
      </trkpt>
      <trkpt lat="43.20327" lon="5.49676">
        <ele>-5.32</ele>
        <time>2020-03-06T09:49:34Z</time>
      </trkpt>
      <trkpt lat="43.20334" lon="5.49661">
        <ele>-4.6</ele>
        <time>2020-03-06T09:49:44Z</time>
      </trkpt>
      <trkpt lat="43.20337" lon="5.49656">
        <ele>-4.54</ele>
        <time>2020-03-06T09:49:47Z</time>
      </trkpt>
      <trkpt lat="43.20338" lon="5.49656">
        <ele>-4.57</ele>
        <time>2020-03-06T09:49:48Z</time>
      </trkpt>
      <trkpt lat="43.2034" lon="5.49655">
        <ele>-4.6</ele>
        <time>2020-03-06T09:49:49Z</time>
      </trkpt>
      <trkpt lat="43.20342" lon="5.49656">
        <ele>-4.62</ele>
        <time>2020-03-06T09:49:50Z</time>
      </trkpt>
      <trkpt lat="43.20354" lon="5.49654">
        <ele>-4.93</ele>
        <time>2020-03-06T09:49:56Z</time>
      </trkpt>
      <trkpt lat="43.20356" lon="5.49654">
        <ele>-4.95</ele>
        <time>2020-03-06T09:49:57Z</time>
      </trkpt>
      <trkpt lat="43.20358" lon="5.49654">
        <ele>-4.92</ele>
        <time>2020-03-06T09:49:58Z</time>
      </trkpt>
      <trkpt lat="43.2036" lon="5.49653">
        <ele>-4.87</ele>
        <time>2020-03-06T09:49:59Z</time>
      </trkpt>
      <trkpt lat="43.20362" lon="5.49653">
        <ele>-4.84</ele>
        <time>2020-03-06T09:50:00Z</time>
      </trkpt>
      <trkpt lat="43.20363" lon="5.49652">
        <ele>-4.8</ele>
        <time>2020-03-06T09:50:01Z</time>
      </trkpt>
      <trkpt lat="43.20364" lon="5.49652">
        <ele>-4.77</ele>
        <time>2020-03-06T09:50:02Z</time>
      </trkpt>
      <trkpt lat="43.20365" lon="5.49652">
        <ele>-4.73</ele>
        <time>2020-03-06T09:50:03Z</time>
      </trkpt>
      <trkpt lat="43.20366" lon="5.49651">
        <ele>-4.65</ele>
        <time>2020-03-06T09:50:04Z</time>
      </trkpt>
      <trkpt lat="43.20367" lon="5.49651">
        <ele>-4.58</ele>
        <time>2020-03-06T09:50:05Z</time>
      </trkpt>
      <trkpt lat="43.20367" lon="5.49651">
        <ele>-4.52</ele>
        <time>2020-03-06T09:50:06Z</time>
      </trkpt>
      <trkpt lat="43.20369" lon="5.49649">
        <ele>-4.32</ele>
        <time>2020-03-06T09:50:08Z</time>
      </trkpt>
      <trkpt lat="43.2037" lon="5.49648">
        <ele>-4.23</ele>
        <time>2020-03-06T09:50:09Z</time>
      </trkpt>
      <trkpt lat="43.20371" lon="5.49647">
        <ele>-4.15</ele>
        <time>2020-03-06T09:50:10Z</time>
      </trkpt>
      <trkpt lat="43.20372" lon="5.49645">
        <ele>-3.19</ele>
        <time>2020-03-06T09:50:22Z</time>
      </trkpt>
      <trkpt lat="43.20384" lon="5.49633">
        <ele>-1.56</ele>
        <time>2020-03-06T09:50:38Z</time>
      </trkpt>
      <trkpt lat="43.20403" lon="5.49642">
        <ele>0.09</ele>
        <time>2020-03-06T09:50:57Z</time>
      </trkpt>
      <trkpt lat="43.20404" lon="5.49644">
        <ele>0.02</ele>
        <time>2020-03-06T09:50:58Z</time>
      </trkpt>
      <trkpt lat="43.20405" lon="5.49646">
        <ele>-0.08</ele>
        <time>2020-03-06T09:50:59Z</time>
      </trkpt>
      <trkpt lat="43.20424" lon="5.4967">
        <ele>-0.66</ele>
        <time>2020-03-06T09:51:16Z</time>
      </trkpt>
      <trkpt lat="43.20429" lon="5.49669">
        <ele>-0.44</ele>
        <time>2020-03-06T09:51:19Z</time>
      </trkpt>
      <trkpt lat="43.2043" lon="5.49668">
        <ele>-0.33</ele>
        <time>2020-03-06T09:51:20Z</time>
      </trkpt>
      <trkpt lat="43.20432" lon="5.49666">
        <ele>-0.19</ele>
        <time>2020-03-06T09:51:21Z</time>
      </trkpt>
      <trkpt lat="43.20434" lon="5.49665">
        <ele>-0.04</ele>
        <time>2020-03-06T09:51:22Z</time>
      </trkpt>
      <trkpt lat="43.20462" lon="5.49657">
        <ele>1.01</ele>
        <time>2020-03-06T09:51:39Z</time>
      </trkpt>
      <trkpt lat="43.20474" lon="5.49656">
        <ele>1.17</ele>
        <time>2020-03-06T09:51:49Z</time>
      </trkpt>
      <trkpt lat="43.20479" lon="5.49654">
        <ele>2.78</ele>
        <time>2020-03-06T09:51:54Z</time>
      </trkpt>
      <trkpt lat="43.20496" lon="5.49654">
        <ele>3.89</ele>
        <time>2020-03-06T09:52:05Z</time>
      </trkpt>
      <trkpt lat="43.20525" lon="5.4965">
        <ele>6.1</ele>
        <time>2020-03-06T09:52:25Z</time>
      </trkpt>
      <trkpt lat="43.20543" lon="5.49666">
        <ele>8.01</ele>
        <time>2020-03-06T09:52:43Z</time>
      </trkpt>
      <trkpt lat="43.20559" lon="5.49691">
        <ele>10.29</ele>
        <time>2020-03-06T09:53:01Z</time>
      </trkpt>
      <trkpt lat="43.20564" lon="5.49694">
        <ele>10.45</ele>
        <time>2020-03-06T09:53:04Z</time>
      </trkpt>
      <trkpt lat="43.20571" lon="5.49705">
        <ele>10.52</ele>
        <time>2020-03-06T09:53:11Z</time>
      </trkpt>
      <trkpt lat="43.20576" lon="5.49712">
        <ele>10.45</ele>
        <time>2020-03-06T09:53:15Z</time>
      </trkpt>
      <trkpt lat="43.20578" lon="5.49714">
        <ele>10.48</ele>
        <time>2020-03-06T09:53:18Z</time>
      </trkpt>
      <trkpt lat="43.20582" lon="5.49717">
        <ele>10.53</ele>
        <time>2020-03-06T09:53:21Z</time>
      </trkpt>
      <trkpt lat="43.20583" lon="5.49718">
        <ele>10.55</ele>
        <time>2020-03-06T09:53:22Z</time>
      </trkpt>
      <trkpt lat="43.20589" lon="5.49728">
        <ele>10.74</ele>
        <time>2020-03-06T09:53:30Z</time>
      </trkpt>
      <trkpt lat="43.20591" lon="5.4973">
        <ele>10.79</ele>
        <time>2020-03-06T09:53:31Z</time>
      </trkpt>
      <trkpt lat="43.20592" lon="5.49731">
        <ele>10.84</ele>
        <time>2020-03-06T09:53:32Z</time>
      </trkpt>
      <trkpt lat="43.20594" lon="5.49732">
        <ele>10.87</ele>
        <time>2020-03-06T09:53:33Z</time>
      </trkpt>
      <trkpt lat="43.20596" lon="5.49732">
        <ele>10.9</ele>
        <time>2020-03-06T09:53:34Z</time>
      </trkpt>
      <trkpt lat="43.20598" lon="5.49733">
        <ele>10.94</ele>
        <time>2020-03-06T09:53:35Z</time>
      </trkpt>
      <trkpt lat="43.20616" lon="5.49732">
        <ele>11.75</ele>
        <time>2020-03-06T09:53:46Z</time>
      </trkpt>
      <trkpt lat="43.20622" lon="5.49728">
        <ele>12.31</ele>
        <time>2020-03-06T09:53:50Z</time>
      </trkpt>
      <trkpt lat="43.20624" lon="5.49726">
        <ele>12.47</ele>
        <time>2020-03-06T09:53:51Z</time>
      </trkpt>
      <trkpt lat="43.20625" lon="5.49725">
        <ele>12.61</ele>
        <time>2020-03-06T09:53:52Z</time>
      </trkpt>
      <trkpt lat="43.20641" lon="5.49727">
        <ele>13.18</ele>
        <time>2020-03-06T09:54:00Z</time>
      </trkpt>
      <trkpt lat="43.20642" lon="5.49728">
        <ele>13.26</ele>
        <time>2020-03-06T09:54:01Z</time>
      </trkpt>
      <trkpt lat="43.20648" lon="5.49746">
        <ele>15.15</ele>
        <time>2020-03-06T09:54:14Z</time>
      </trkpt>
      <trkpt lat="43.2065" lon="5.49778">
        <ele>15.86</ele>
        <time>2020-03-06T09:54:30Z</time>
      </trkpt>
      <trkpt lat="43.20645" lon="5.49804">
        <ele>16.74</ele>
        <time>2020-03-06T09:54:49Z</time>
      </trkpt>
      <trkpt lat="43.20643" lon="5.49814">
        <ele>17.19</ele>
        <time>2020-03-06T09:54:58Z</time>
      </trkpt>
      <trkpt lat="43.20633" lon="5.49837">
        <ele>18.12</ele>
        <time>2020-03-06T09:55:14Z</time>
      </trkpt>
      <trkpt lat="43.20636" lon="5.49844">
        <ele>18.54</ele>
        <time>2020-03-06T09:55:38Z</time>
      </trkpt>
      <trkpt lat="43.20622" lon="5.49861">
        <ele>18.15</ele>
        <time>2020-03-06T09:55:53Z</time>
      </trkpt>
      <trkpt lat="43.20619" lon="5.4987">
        <ele>18.51</ele>
        <time>2020-03-06T09:56:05Z</time>
      </trkpt>
      <trkpt lat="43.20618" lon="5.49871">
        <ele>18.58</ele>
        <time>2020-03-06T09:56:06Z</time>
      </trkpt>
      <trkpt lat="43.20614" lon="5.49894">
        <ele>19.39</ele>
        <time>2020-03-06T09:56:23Z</time>
      </trkpt>
      <trkpt lat="43.20611" lon="5.4991">
        <ele>20.64</ele>
        <time>2020-03-06T09:56:33Z</time>
      </trkpt>
      <trkpt lat="43.20611" lon="5.49916">
        <ele>21.39</ele>
        <time>2020-03-06T09:56:39Z</time>
      </trkpt>
      <trkpt lat="43.20612" lon="5.49919">
        <ele>21.68</ele>
        <time>2020-03-06T09:56:42Z</time>
      </trkpt>
      <trkpt lat="43.20616" lon="5.49931">
        <ele>23.4</ele>
        <time>2020-03-06T09:57:04Z</time>
      </trkpt>
      <trkpt lat="43.2062" lon="5.49943">
        <ele>26.49</ele>
        <time>2020-03-06T09:57:21Z</time>
      </trkpt>
      <trkpt lat="43.20617" lon="5.49958">
        <ele>28.71</ele>
        <time>2020-03-06T09:57:43Z</time>
      </trkpt>
      <trkpt lat="43.20622" lon="5.49973">
        <ele>30.39</ele>
        <time>2020-03-06T09:58:03Z</time>
      </trkpt>
      <trkpt lat="43.20625" lon="5.49985">
        <ele>33.44</ele>
        <time>2020-03-06T09:58:19Z</time>
      </trkpt>
      <trkpt lat="43.20625" lon="5.49991">
        <ele>36.62</ele>
        <time>2020-03-06T09:58:29Z</time>
      </trkpt>
      <trkpt lat="43.20627" lon="5.49999">
        <ele>39.73</ele>
        <time>2020-03-06T09:58:46Z</time>
      </trkpt>
      <trkpt lat="43.2063" lon="5.50004">
        <ele>42.52</ele>
        <time>2020-03-06T09:59:09Z</time>
      </trkpt>
      <trkpt lat="43.20628" lon="5.50006">
        <ele>43.95</ele>
        <time>2020-03-06T09:59:35Z</time>
      </trkpt>
      <trkpt lat="43.20626" lon="5.50012">
        <ele>44.01</ele>
        <time>2020-03-06T10:00:03Z</time>
      </trkpt>
      <trkpt lat="43.20631" lon="5.50015">
        <ele>47.25</ele>
        <time>2020-03-06T10:00:19Z</time>
      </trkpt>
      <trkpt lat="43.20636" lon="5.50018">
        <ele>49.32</ele>
        <time>2020-03-06T10:00:30Z</time>
      </trkpt>
      <trkpt lat="43.20646" lon="5.50025">
        <ele>52.51</ele>
        <time>2020-03-06T10:00:50Z</time>
      </trkpt>
      <trkpt lat="43.2065" lon="5.50033">
        <ele>55.51</ele>
        <time>2020-03-06T10:01:04Z</time>
      </trkpt>
      <trkpt lat="43.2065" lon="5.50034">
        <ele>56.19</ele>
        <time>2020-03-06T10:01:07Z</time>
      </trkpt>
      <trkpt lat="43.20656" lon="5.50044">
        <ele>59.51</ele>
        <time>2020-03-06T10:01:21Z</time>
      </trkpt>
      <trkpt lat="43.2066" lon="5.50049">
        <ele>62.57</ele>
        <time>2020-03-06T10:01:33Z</time>
      </trkpt>
      <trkpt lat="43.20662" lon="5.5005">
        <ele>64.33</ele>
        <time>2020-03-06T10:01:43Z</time>
      </trkpt>
      <trkpt lat="43.20662" lon="5.50053">
        <ele>65.06</ele>
        <time>2020-03-06T10:01:46Z</time>
      </trkpt>
      <trkpt lat="43.20666" lon="5.50063">
        <ele>68.19</ele>
        <time>2020-03-06T10:02:01Z</time>
      </trkpt>
      <trkpt lat="43.20672" lon="5.5007">
        <ele>71.64</ele>
        <time>2020-03-06T10:02:18Z</time>
      </trkpt>
      <trkpt lat="43.20678" lon="5.50071">
        <ele>74.83</ele>
        <time>2020-03-06T10:02:30Z</time>
      </trkpt>
      <trkpt lat="43.20683" lon="5.5007">
        <ele>77.89</ele>
        <time>2020-03-06T10:02:42Z</time>
      </trkpt>
      <trkpt lat="43.20684" lon="5.50077">
        <ele>79.78</ele>
        <time>2020-03-06T10:03:04Z</time>
      </trkpt>
      <trkpt lat="43.20685" lon="5.50081">
        <ele>82.82</ele>
        <time>2020-03-06T10:03:14Z</time>
      </trkpt>
      <trkpt lat="43.20686" lon="5.50089">
        <ele>85.88</ele>
        <time>2020-03-06T10:03:26Z</time>
      </trkpt>
      <trkpt lat="43.20687" lon="5.5009">
        <ele>86.47</ele>
        <time>2020-03-06T10:03:30Z</time>
      </trkpt>
      <trkpt lat="43.20691" lon="5.50093">
        <ele>89.67</ele>
        <time>2020-03-06T10:03:47Z</time>
      </trkpt>
      <trkpt lat="43.20693" lon="5.50097">
        <ele>91.36</ele>
        <time>2020-03-06T10:03:55Z</time>
      </trkpt>
      <trkpt lat="43.20681" lon="5.50103">
        <ele>94.51</ele>
        <time>2020-03-06T10:04:14Z</time>
      </trkpt>
      <trkpt lat="43.20676" lon="5.5011">
        <ele>96.86</ele>
        <time>2020-03-06T10:04:34Z</time>
      </trkpt>
      <trkpt lat="43.20665" lon="5.50111">
        <ele>100.05</ele>
        <time>2020-03-06T10:04:50Z</time>
      </trkpt>
      <trkpt lat="43.20654" lon="5.50117">
        <ele>103.27</ele>
        <time>2020-03-06T10:05:06Z</time>
      </trkpt>
      <trkpt lat="43.20655" lon="5.50122">
        <ele>106.58</ele>
        <time>2020-03-06T10:05:19Z</time>
      </trkpt>
      <trkpt lat="43.20659" lon="5.50126">
        <ele>109.59</ele>
        <time>2020-03-06T10:05:37Z</time>
      </trkpt>
      <trkpt lat="43.20662" lon="5.50132">
        <ele>110.8</ele>
        <time>2020-03-06T10:05:53Z</time>
      </trkpt>
      <trkpt lat="43.2066" lon="5.50135">
        <ele>114.01</ele>
        <time>2020-03-06T10:06:04Z</time>
      </trkpt>
      <trkpt lat="43.20654" lon="5.50146">
        <ele>117.15</ele>
        <time>2020-03-06T10:06:23Z</time>
      </trkpt>
      <trkpt lat="43.20655" lon="5.50148">
        <ele>120.36</ele>
        <time>2020-03-06T10:06:35Z</time>
      </trkpt>
      <trkpt lat="43.20653" lon="5.5015">
        <ele>123.48</ele>
        <time>2020-03-06T10:06:48Z</time>
      </trkpt>
      <trkpt lat="43.20651" lon="5.50149">
        <ele>125.94</ele>
        <time>2020-03-06T10:07:07Z</time>
      </trkpt>
      <trkpt lat="43.20642" lon="5.50155">
        <ele>129.14</ele>
        <time>2020-03-06T10:07:25Z</time>
      </trkpt>
      <trkpt lat="43.20631" lon="5.50165">
        <ele>132.25</ele>
        <time>2020-03-06T10:07:44Z</time>
      </trkpt>
      <trkpt lat="43.20631" lon="5.50168">
        <ele>136.3</ele>
        <time>2020-03-06T10:08:53Z</time>
      </trkpt>
      <trkpt lat="43.2063" lon="5.50176">
        <ele>136.27</ele>
        <time>2020-03-06T10:09:01Z</time>
      </trkpt>
      <trkpt lat="43.20625" lon="5.50183">
        <ele>136.25</ele>
        <time>2020-03-06T10:09:07Z</time>
      </trkpt>
      <trkpt lat="43.20617" lon="5.50189">
        <ele>136.96</ele>
        <time>2020-03-06T10:09:18Z</time>
      </trkpt>
      <trkpt lat="43.20605" lon="5.50194">
        <ele>136.15</ele>
        <time>2020-03-06T10:09:27Z</time>
      </trkpt>
      <trkpt lat="43.20594" lon="5.502">
        <ele>136.43</ele>
        <time>2020-03-06T10:09:44Z</time>
      </trkpt>
      <trkpt lat="43.20591" lon="5.50202">
        <ele>136.49</ele>
        <time>2020-03-06T10:09:47Z</time>
      </trkpt>
      <trkpt lat="43.20587" lon="5.50204">
        <ele>136.51</ele>
        <time>2020-03-06T10:09:50Z</time>
      </trkpt>
      <trkpt lat="43.20581" lon="5.50203">
        <ele>136.98</ele>
        <time>2020-03-06T10:09:55Z</time>
      </trkpt>
      <trkpt lat="43.20571" lon="5.50206">
        <ele>137.43</ele>
        <time>2020-03-06T10:10:07Z</time>
      </trkpt>
      <trkpt lat="43.20569" lon="5.50208">
        <ele>137.52</ele>
        <time>2020-03-06T10:10:09Z</time>
      </trkpt>
      <trkpt lat="43.20553" lon="5.50219">
        <ele>139.1</ele>
        <time>2020-03-06T10:10:24Z</time>
      </trkpt>
      <trkpt lat="43.20538" lon="5.50227">
        <ele>140.1</ele>
        <time>2020-03-06T10:10:36Z</time>
      </trkpt>
      <trkpt lat="43.20534" lon="5.5023">
        <ele>140.41</ele>
        <time>2020-03-06T10:10:40Z</time>
      </trkpt>
      <trkpt lat="43.20521" lon="5.5024">
        <ele>142.38</ele>
        <time>2020-03-06T10:10:54Z</time>
      </trkpt>
      <trkpt lat="43.20505" lon="5.5025">
        <ele>144</ele>
        <time>2020-03-06T10:11:08Z</time>
      </trkpt>
      <trkpt lat="43.2049" lon="5.50258">
        <ele>144.56</ele>
        <time>2020-03-06T10:11:23Z</time>
      </trkpt>
      <trkpt lat="43.20482" lon="5.50259">
        <ele>144.56</ele>
        <time>2020-03-06T10:11:29Z</time>
      </trkpt>
      <trkpt lat="43.20477" lon="5.50257">
        <ele>144.68</ele>
        <time>2020-03-06T10:11:33Z</time>
      </trkpt>
      <trkpt lat="43.20474" lon="5.50257">
        <ele>144.78</ele>
        <time>2020-03-06T10:11:35Z</time>
      </trkpt>
      <trkpt lat="43.20455" lon="5.5025">
        <ele>144.08</ele>
        <time>2020-03-06T10:11:51Z</time>
      </trkpt>
      <trkpt lat="43.20438" lon="5.50243">
        <ele>142.38</ele>
        <time>2020-03-06T10:12:05Z</time>
      </trkpt>
      <trkpt lat="43.20428" lon="5.50242">
        <ele>140.97</ele>
        <time>2020-03-06T10:12:12Z</time>
      </trkpt>
      <trkpt lat="43.20411" lon="5.50236">
        <ele>139.12</ele>
        <time>2020-03-06T10:12:25Z</time>
      </trkpt>
      <trkpt lat="43.20392" lon="5.50236">
        <ele>136.24</ele>
        <time>2020-03-06T10:12:40Z</time>
      </trkpt>
      <trkpt lat="43.20384" lon="5.50232">
        <ele>135.12</ele>
        <time>2020-03-06T10:12:45Z</time>
      </trkpt>
      <trkpt lat="43.20378" lon="5.5023">
        <ele>134.77</ele>
        <time>2020-03-06T10:12:50Z</time>
      </trkpt>
      <trkpt lat="43.20362" lon="5.50228">
        <ele>132.45</ele>
        <time>2020-03-06T10:13:07Z</time>
      </trkpt>
      <trkpt lat="43.20349" lon="5.50233">
        <ele>131.12</ele>
        <time>2020-03-06T10:13:22Z</time>
      </trkpt>
      <trkpt lat="43.20346" lon="5.50235">
        <ele>130.9</ele>
        <time>2020-03-06T10:16:24Z</time>
      </trkpt>
      <trkpt lat="43.20345" lon="5.50233">
        <ele>130.12</ele>
        <time>2020-03-06T10:17:39Z</time>
      </trkpt>
      <trkpt lat="43.20339" lon="5.50225">
        <ele>130.08</ele>
        <time>2020-03-06T10:17:53Z</time>
      </trkpt>
      <trkpt lat="43.20325" lon="5.50211">
        <ele>128.43</ele>
        <time>2020-03-06T10:18:13Z</time>
      </trkpt>
      <trkpt lat="43.20305" lon="5.50195">
        <ele>126.25</ele>
        <time>2020-03-06T10:18:29Z</time>
      </trkpt>
      <trkpt lat="43.20289" lon="5.50188">
        <ele>125.01</ele>
        <time>2020-03-06T10:18:47Z</time>
      </trkpt>
      <trkpt lat="43.20287" lon="5.50176">
        <ele>125.21</ele>
        <time>2020-03-06T10:19:02Z</time>
      </trkpt>
      <trkpt lat="43.20282" lon="5.50163">
        <ele>124.29</ele>
        <time>2020-03-06T10:19:19Z</time>
      </trkpt>
      <trkpt lat="43.2027" lon="5.50161">
        <ele>122.71</ele>
        <time>2020-03-06T10:19:31Z</time>
      </trkpt>
      <trkpt lat="43.20256" lon="5.50164">
        <ele>121.43</ele>
        <time>2020-03-06T10:19:41Z</time>
      </trkpt>
      <trkpt lat="43.20244" lon="5.50159">
        <ele>120.65</ele>
        <time>2020-03-06T10:19:52Z</time>
      </trkpt>
      <trkpt lat="43.20235" lon="5.50158">
        <ele>119.16</ele>
        <time>2020-03-06T10:20:02Z</time>
      </trkpt>
      <trkpt lat="43.2022" lon="5.50159">
        <ele>116.09</ele>
        <time>2020-03-06T10:20:21Z</time>
      </trkpt>
      <trkpt lat="43.20219" lon="5.50169">
        <ele>115.53</ele>
        <time>2020-03-06T10:20:40Z</time>
      </trkpt>
      <trkpt lat="43.20212" lon="5.50181">
        <ele>112.43</ele>
        <time>2020-03-06T10:20:59Z</time>
      </trkpt>
      <trkpt lat="43.2021" lon="5.50204">
        <ele>109.39</ele>
        <time>2020-03-06T10:21:15Z</time>
      </trkpt>
      <trkpt lat="43.20199" lon="5.50216">
        <ele>106.31</ele>
        <time>2020-03-06T10:21:31Z</time>
      </trkpt>
      <trkpt lat="43.20194" lon="5.50225">
        <ele>103.3</ele>
        <time>2020-03-06T10:21:42Z</time>
      </trkpt>
      <trkpt lat="43.20183" lon="5.50235">
        <ele>100.27</ele>
        <time>2020-03-06T10:21:56Z</time>
      </trkpt>
      <trkpt lat="43.20177" lon="5.50252">
        <ele>98.22</ele>
        <time>2020-03-06T10:22:15Z</time>
      </trkpt>
      <trkpt lat="43.20168" lon="5.50265">
        <ele>95.02</ele>
        <time>2020-03-06T10:22:31Z</time>
      </trkpt>
      <trkpt lat="43.20167" lon="5.50285">
        <ele>91.95</ele>
        <time>2020-03-06T10:22:48Z</time>
      </trkpt>
      <trkpt lat="43.20167" lon="5.50306">
        <ele>90.75</ele>
        <time>2020-03-06T10:23:11Z</time>
      </trkpt>
      <trkpt lat="43.20159" lon="5.50313">
        <ele>88.21</ele>
        <time>2020-03-06T10:23:25Z</time>
      </trkpt>
      <trkpt lat="43.20151" lon="5.50326">
        <ele>86.51</ele>
        <time>2020-03-06T10:23:47Z</time>
      </trkpt>
      <trkpt lat="43.2014" lon="5.50358">
        <ele>84.13</ele>
        <time>2020-03-06T10:31:30Z</time>
      </trkpt>
      <trkpt lat="43.20134" lon="5.50361">
        <ele>80.92</ele>
        <time>2020-03-06T10:31:41Z</time>
      </trkpt>
      <trkpt lat="43.20121" lon="5.50373">
        <ele>78.2</ele>
        <time>2020-03-06T10:31:55Z</time>
      </trkpt>
      <trkpt lat="43.2011" lon="5.50388">
        <ele>75.03</ele>
        <time>2020-03-06T10:32:13Z</time>
      </trkpt>
      <trkpt lat="43.20104" lon="5.504">
        <ele>71.97</ele>
        <time>2020-03-06T10:32:26Z</time>
      </trkpt>
      <trkpt lat="43.20098" lon="5.50412">
        <ele>69.41</ele>
        <time>2020-03-06T10:32:43Z</time>
      </trkpt>
      <trkpt lat="43.20096" lon="5.50427">
        <ele>67.51</ele>
        <time>2020-03-06T10:32:52Z</time>
      </trkpt>
      <trkpt lat="43.20098" lon="5.50445">
        <ele>64.97</ele>
        <time>2020-03-06T10:33:07Z</time>
      </trkpt>
      <trkpt lat="43.20097" lon="5.50467">
        <ele>61.95</ele>
        <time>2020-03-06T10:33:26Z</time>
      </trkpt>
      <trkpt lat="43.20096" lon="5.50469">
        <ele>61.62</ele>
        <time>2020-03-06T10:33:30Z</time>
      </trkpt>
      <trkpt lat="43.20085" lon="5.50482">
        <ele>62.11</ele>
        <time>2020-03-06T10:33:52Z</time>
      </trkpt>
      <trkpt lat="43.20076" lon="5.50501">
        <ele>62.57</ele>
        <time>2020-03-06T10:34:08Z</time>
      </trkpt>
      <trkpt lat="43.2007" lon="5.50512">
        <ele>62.03</ele>
        <time>2020-03-06T10:34:23Z</time>
      </trkpt>
      <trkpt lat="43.2006" lon="5.5052">
        <ele>61.2</ele>
        <time>2020-03-06T10:34:49Z</time>
      </trkpt>
      <trkpt lat="43.20055" lon="5.50529">
        <ele>59.68</ele>
        <time>2020-03-06T10:35:02Z</time>
      </trkpt>
      <trkpt lat="43.2005" lon="5.50534">
        <ele>58.15</ele>
        <time>2020-03-06T10:35:12Z</time>
      </trkpt>
      <trkpt lat="43.2004" lon="5.50545">
        <ele>54.93</ele>
        <time>2020-03-06T10:35:32Z</time>
      </trkpt>
      <trkpt lat="43.20034" lon="5.50554">
        <ele>51.87</ele>
        <time>2020-03-06T10:35:48Z</time>
      </trkpt>
      <trkpt lat="43.20028" lon="5.50563">
        <ele>48.7</ele>
        <time>2020-03-06T10:36:04Z</time>
      </trkpt>
      <trkpt lat="43.20023" lon="5.50575">
        <ele>46.29</ele>
        <time>2020-03-06T10:36:19Z</time>
      </trkpt>
      <trkpt lat="43.2002" lon="5.50577">
        <ele>44.33</ele>
        <time>2020-03-06T10:36:40Z</time>
      </trkpt>
      <trkpt lat="43.20021" lon="5.50588">
        <ele>41.23</ele>
        <time>2020-03-06T10:36:53Z</time>
      </trkpt>
      <trkpt lat="43.20019" lon="5.50595">
        <ele>38.22</ele>
        <time>2020-03-06T10:37:09Z</time>
      </trkpt>
      <trkpt lat="43.20021" lon="5.50612">
        <ele>35.96</ele>
        <time>2020-03-06T10:37:24Z</time>
      </trkpt>
      <trkpt lat="43.20023" lon="5.50622">
        <ele>32.9</ele>
        <time>2020-03-06T10:37:40Z</time>
      </trkpt>
      <trkpt lat="43.20022" lon="5.50632">
        <ele>30.9</ele>
        <time>2020-03-06T10:37:55Z</time>
      </trkpt>
      <trkpt lat="43.20027" lon="5.50647">
        <ele>28.59</ele>
        <time>2020-03-06T10:38:09Z</time>
      </trkpt>
      <trkpt lat="43.20032" lon="5.50663">
        <ele>25.71</ele>
        <time>2020-03-06T10:38:28Z</time>
      </trkpt>
      <trkpt lat="43.20034" lon="5.50668">
        <ele>25.19</ele>
        <time>2020-03-06T10:38:33Z</time>
      </trkpt>
      <trkpt lat="43.20036" lon="5.50671">
        <ele>24.63</ele>
        <time>2020-03-06T10:38:40Z</time>
      </trkpt>
      <trkpt lat="43.20044" lon="5.50684">
        <ele>24.48</ele>
        <time>2020-03-06T10:39:05Z</time>
      </trkpt>
      <trkpt lat="43.20053" lon="5.50695">
        <ele>24</ele>
        <time>2020-03-06T10:39:21Z</time>
      </trkpt>
      <trkpt lat="43.20059" lon="5.50702">
        <ele>27.09</ele>
        <time>2020-03-06T10:39:35Z</time>
      </trkpt>
      <trkpt lat="43.20069" lon="5.50704">
        <ele>29.7</ele>
        <time>2020-03-06T10:39:56Z</time>
      </trkpt>
      <trkpt lat="43.20082" lon="5.50698">
        <ele>32.24</ele>
        <time>2020-03-06T10:40:15Z</time>
      </trkpt>
      <trkpt lat="43.20092" lon="5.50692">
        <ele>35.38</ele>
        <time>2020-03-06T10:40:33Z</time>
      </trkpt>
      <trkpt lat="43.20107" lon="5.50686">
        <ele>38.55</ele>
        <time>2020-03-06T10:40:52Z</time>
      </trkpt>
      <trkpt lat="43.20116" lon="5.50684">
        <ele>40.99</ele>
        <time>2020-03-06T10:41:12Z</time>
      </trkpt>
      <trkpt lat="43.20119" lon="5.50687">
        <ele>44.03</ele>
        <time>2020-03-06T10:41:25Z</time>
      </trkpt>
      <trkpt lat="43.20127" lon="5.50692">
        <ele>47.12</ele>
        <time>2020-03-06T10:41:41Z</time>
      </trkpt>
      <trkpt lat="43.20132" lon="5.50701">
        <ele>48.07</ele>
        <time>2020-03-06T10:41:57Z</time>
      </trkpt>
      <trkpt lat="43.2014" lon="5.507">
        <ele>51.15</ele>
        <time>2020-03-06T10:42:17Z</time>
      </trkpt>
      <trkpt lat="43.20142" lon="5.50707">
        <ele>49.77</ele>
        <time>2020-03-06T10:42:35Z</time>
      </trkpt>
      <trkpt lat="43.20145" lon="5.50712">
        <ele>46.6</ele>
        <time>2020-03-06T10:42:44Z</time>
      </trkpt>
      <trkpt lat="43.20152" lon="5.50724">
        <ele>46.1</ele>
        <time>2020-03-06T10:42:59Z</time>
      </trkpt>
      <trkpt lat="43.20159" lon="5.50739">
        <ele>45.42</ele>
        <time>2020-03-06T10:43:13Z</time>
      </trkpt>
      <trkpt lat="43.20168" lon="5.50756">
        <ele>45.83</ele>
        <time>2020-03-06T10:43:29Z</time>
      </trkpt>
      <trkpt lat="43.20177" lon="5.50767">
        <ele>45.1</ele>
        <time>2020-03-06T10:43:40Z</time>
      </trkpt>
      <trkpt lat="43.2019" lon="5.50782">
        <ele>44.36</ele>
        <time>2020-03-06T10:43:55Z</time>
      </trkpt>
      <trkpt lat="43.20196" lon="5.50789">
        <ele>44.24</ele>
        <time>2020-03-06T10:44:02Z</time>
      </trkpt>
      <trkpt lat="43.20198" lon="5.5079">
        <ele>44.28</ele>
        <time>2020-03-06T10:44:04Z</time>
      </trkpt>
      <trkpt lat="43.20206" lon="5.50792">
        <ele>45.04</ele>
        <time>2020-03-06T10:44:15Z</time>
      </trkpt>
      <trkpt lat="43.20213" lon="5.50794">
        <ele>45.71</ele>
        <time>2020-03-06T10:44:37Z</time>
      </trkpt>
      <trkpt lat="43.20227" lon="5.50794">
        <ele>48.05</ele>
        <time>2020-03-06T10:44:56Z</time>
      </trkpt>
      <trkpt lat="43.20235" lon="5.50794">
        <ele>51.12</ele>
        <time>2020-03-06T10:45:08Z</time>
      </trkpt>
      <trkpt lat="43.20241" lon="5.50799">
        <ele>51.51</ele>
        <time>2020-03-06T10:45:15Z</time>
      </trkpt>
      <trkpt lat="43.20252" lon="5.50806">
        <ele>50.8</ele>
        <time>2020-03-06T10:45:31Z</time>
      </trkpt>
      <trkpt lat="43.20259" lon="5.50813">
        <ele>50.56</ele>
        <time>2020-03-06T10:45:40Z</time>
      </trkpt>
      <trkpt lat="43.20273" lon="5.50824">
        <ele>53.04</ele>
        <time>2020-03-06T10:45:58Z</time>
      </trkpt>
      <trkpt lat="43.20283" lon="5.50835">
        <ele>55.8</ele>
        <time>2020-03-06T10:46:18Z</time>
      </trkpt>
      <trkpt lat="43.20296" lon="5.50843">
        <ele>53.95</ele>
        <time>2020-03-06T10:46:36Z</time>
      </trkpt>
      <trkpt lat="43.20304" lon="5.50842">
        <ele>54.62</ele>
        <time>2020-03-06T10:46:55Z</time>
      </trkpt>
      <trkpt lat="43.20319" lon="5.50837">
        <ele>57.37</ele>
        <time>2020-03-06T10:47:15Z</time>
      </trkpt>
      <trkpt lat="43.20326" lon="5.50841">
        <ele>56.84</ele>
        <time>2020-03-06T10:47:30Z</time>
      </trkpt>
      <trkpt lat="43.20328" lon="5.50844">
        <ele>55.9</ele>
        <time>2020-03-06T10:47:33Z</time>
      </trkpt>
      <trkpt lat="43.20331" lon="5.50852">
        <ele>54.55</ele>
        <time>2020-03-06T10:47:39Z</time>
      </trkpt>
      <trkpt lat="43.20336" lon="5.50868">
        <ele>52.8</ele>
        <time>2020-03-06T10:47:56Z</time>
      </trkpt>
      <trkpt lat="43.20341" lon="5.50871">
        <ele>52.82</ele>
        <time>2020-03-06T10:48:14Z</time>
      </trkpt>
      <trkpt lat="43.20341" lon="5.50881">
        <ele>51.55</ele>
        <time>2020-03-06T10:48:35Z</time>
      </trkpt>
      <trkpt lat="43.20343" lon="5.50889">
        <ele>49.22</ele>
        <time>2020-03-06T10:48:52Z</time>
      </trkpt>
      <trkpt lat="43.20346" lon="5.50904">
        <ele>46.09</ele>
        <time>2020-03-06T10:49:12Z</time>
      </trkpt>
      <trkpt lat="43.20353" lon="5.50912">
        <ele>43.1</ele>
        <time>2020-03-06T10:49:30Z</time>
      </trkpt>
      <trkpt lat="43.20355" lon="5.50924">
        <ele>41.5</ele>
        <time>2020-03-06T10:49:45Z</time>
      </trkpt>
      <trkpt lat="43.20356" lon="5.50938">
        <ele>38.62</ele>
        <time>2020-03-06T10:49:59Z</time>
      </trkpt>
      <trkpt lat="43.20355" lon="5.50956">
        <ele>36.24</ele>
        <time>2020-03-06T10:50:13Z</time>
      </trkpt>
      <trkpt lat="43.20354" lon="5.50968">
        <ele>33.53</ele>
        <time>2020-03-06T10:50:28Z</time>
      </trkpt>
      <trkpt lat="43.20351" lon="5.50978">
        <ele>32.31</ele>
        <time>2020-03-06T10:50:43Z</time>
      </trkpt>
      <trkpt lat="43.20349" lon="5.5098">
        <ele>31.66</ele>
        <time>2020-03-06T10:51:06Z</time>
      </trkpt>
      <trkpt lat="43.20347" lon="5.50979">
        <ele>31.07</ele>
        <time>2020-03-06T10:51:33Z</time>
      </trkpt>
      <trkpt lat="43.20348" lon="5.50981">
        <ele>30.85</ele>
        <time>2020-03-06T10:51:55Z</time>
      </trkpt>
      <trkpt lat="43.20346" lon="5.5098">
        <ele>30.83</ele>
        <time>2020-03-06T10:52:28Z</time>
      </trkpt>
      <trkpt lat="43.20348" lon="5.50979">
        <ele>31.04</ele>
        <time>2020-03-06T10:52:55Z</time>
      </trkpt>
      <trkpt lat="43.20348" lon="5.50979">
        <ele>29.93</ele>
        <time>2020-03-06T10:53:49Z</time>
      </trkpt>
      <trkpt lat="43.20349" lon="5.50979">
        <ele>30.04</ele>
        <time>2020-03-06T10:54:27Z</time>
      </trkpt>
      <trkpt lat="43.20349" lon="5.50978">
        <ele>30.6</ele>
        <time>2020-03-06T10:55:19Z</time>
      </trkpt>
      <trkpt lat="43.2035" lon="5.50978">
        <ele>30.83</ele>
        <time>2020-03-06T10:56:44Z</time>
      </trkpt>
      <trkpt lat="43.2035" lon="5.50978">
        <ele>30.68</ele>
        <time>2020-03-06T10:57:45Z</time>
      </trkpt>
      <trkpt lat="43.20349" lon="5.50978">
        <ele>31.12</ele>
        <time>2020-03-06T10:58:57Z</time>
      </trkpt>
      <trkpt lat="43.20348" lon="5.50979">
        <ele>29.9</ele>
        <time>2020-03-06T11:00:06Z</time>
      </trkpt>
      <trkpt lat="43.20349" lon="5.50979">
        <ele>29.87</ele>
        <time>2020-03-06T11:01:15Z</time>
      </trkpt>
      <trkpt lat="43.20348" lon="5.5098">
        <ele>30.42</ele>
        <time>2020-03-06T11:02:21Z</time>
      </trkpt>
      <trkpt lat="43.20349" lon="5.5098">
        <ele>30.17</ele>
        <time>2020-03-06T11:03:48Z</time>
      </trkpt>
      <trkpt lat="43.20349" lon="5.50979">
        <ele>31.78</ele>
        <time>2020-03-06T11:05:06Z</time>
      </trkpt>
      <trkpt lat="43.2035" lon="5.5098">
        <ele>30.42</ele>
        <time>2020-03-06T11:06:23Z</time>
      </trkpt>
      <trkpt lat="43.2035" lon="5.50981">
        <ele>31.19</ele>
        <time>2020-03-06T11:07:39Z</time>
      </trkpt>
      <trkpt lat="43.2035" lon="5.50981">
        <ele>30.05</ele>
        <time>2020-03-06T11:09:19Z</time>
      </trkpt>
      <trkpt lat="43.20349" lon="5.50981">
        <ele>30.26</ele>
        <time>2020-03-06T11:10:28Z</time>
      </trkpt>
      <trkpt lat="43.20349" lon="5.50981">
        <ele>31.25</ele>
        <time>2020-03-06T11:11:57Z</time>
      </trkpt>
      <trkpt lat="43.20348" lon="5.50981">
        <ele>30.46</ele>
        <time>2020-03-06T11:12:58Z</time>
      </trkpt>
      <trkpt lat="43.2035" lon="5.50979">
        <ele>30.84</ele>
        <time>2020-03-06T11:13:38Z</time>
      </trkpt>
      <trkpt lat="43.2035" lon="5.50979">
        <ele>29.89</ele>
        <time>2020-03-06T11:14:26Z</time>
      </trkpt>
      <trkpt lat="43.20348" lon="5.50979">
        <ele>29.72</ele>
        <time>2020-03-06T11:15:33Z</time>
      </trkpt>
      <trkpt lat="43.20349" lon="5.50979">
        <ele>30.51</ele>
        <time>2020-03-06T11:16:07Z</time>
      </trkpt>
      <trkpt lat="43.20348" lon="5.5098">
        <ele>30.47</ele>
        <time>2020-03-06T11:16:39Z</time>
      </trkpt>
      <trkpt lat="43.20348" lon="5.5098">
        <ele>30.56</ele>
        <time>2020-03-06T11:17:10Z</time>
      </trkpt>
      <trkpt lat="43.20347" lon="5.50979">
        <ele>30.18</ele>
        <time>2020-03-06T11:17:40Z</time>
      </trkpt>
      <trkpt lat="43.20347" lon="5.5098">
        <ele>29.09</ele>
        <time>2020-03-06T11:18:13Z</time>
      </trkpt>
      <trkpt lat="43.20346" lon="5.50981">
        <ele>29.87</ele>
        <time>2020-03-06T11:18:42Z</time>
      </trkpt>
      <trkpt lat="43.20345" lon="5.50981">
        <ele>29.84</ele>
        <time>2020-03-06T11:19:18Z</time>
      </trkpt>
      <trkpt lat="43.20347" lon="5.50981">
        <ele>30.95</ele>
        <time>2020-03-06T11:19:43Z</time>
      </trkpt>
      <trkpt lat="43.20349" lon="5.50981">
        <ele>31.12</ele>
        <time>2020-03-06T11:20:10Z</time>
      </trkpt>
      <trkpt lat="43.20353" lon="5.50986">
        <ele>31.5</ele>
        <time>2020-03-06T11:20:35Z</time>
      </trkpt>
      <trkpt lat="43.20353" lon="5.50991">
        <ele>30.18</ele>
        <time>2020-03-06T11:20:53Z</time>
      </trkpt>
      <trkpt lat="43.20353" lon="5.50999">
        <ele>27.22</ele>
        <time>2020-03-06T11:21:07Z</time>
      </trkpt>
      <trkpt lat="43.20353" lon="5.51006">
        <ele>24.16</ele>
        <time>2020-03-06T11:21:25Z</time>
      </trkpt>
      <trkpt lat="43.20355" lon="5.51009">
        <ele>21.99</ele>
        <time>2020-03-06T11:21:41Z</time>
      </trkpt>
      <trkpt lat="43.20357" lon="5.51018">
        <ele>19.27</ele>
        <time>2020-03-06T11:21:58Z</time>
      </trkpt>
      <trkpt lat="43.20355" lon="5.51024">
        <ele>16.94</ele>
        <time>2020-03-06T11:22:15Z</time>
      </trkpt>
      <trkpt lat="43.20358" lon="5.51033">
        <ele>14.54</ele>
        <time>2020-03-06T11:22:35Z</time>
      </trkpt>
      <trkpt lat="43.20361" lon="5.5104">
        <ele>11.5</ele>
        <time>2020-03-06T11:22:50Z</time>
      </trkpt>
      <trkpt lat="43.20363" lon="5.51049">
        <ele>8.38</ele>
        <time>2020-03-06T11:23:06Z</time>
      </trkpt>
      <trkpt lat="43.2037" lon="5.51054">
        <ele>6.33</ele>
        <time>2020-03-06T11:23:20Z</time>
      </trkpt>
      <trkpt lat="43.20373" lon="5.5106">
        <ele>3.98</ele>
        <time>2020-03-06T11:23:35Z</time>
      </trkpt>
      <trkpt lat="43.20377" lon="5.51059">
        <ele>2.72</ele>
        <time>2020-03-06T11:23:59Z</time>
      </trkpt>
      <trkpt lat="43.20383" lon="5.51058">
        <ele>0.97</ele>
        <time>2020-03-06T11:24:16Z</time>
      </trkpt>
      <trkpt lat="43.2039" lon="5.51053">
        <ele>-0.23</ele>
        <time>2020-03-06T11:24:38Z</time>
      </trkpt>
      <trkpt lat="43.20394" lon="5.51056">
        <ele>-0.71</ele>
        <time>2020-03-06T11:24:44Z</time>
      </trkpt>
      <trkpt lat="43.20398" lon="5.51064">
        <ele>-1.94</ele>
        <time>2020-03-06T11:24:50Z</time>
      </trkpt>
      <trkpt lat="43.20409" lon="5.51081">
        <ele>-2.13</ele>
        <time>2020-03-06T11:25:03Z</time>
      </trkpt>
      <trkpt lat="43.2041" lon="5.51093">
        <ele>-0.55</ele>
        <time>2020-03-06T11:26:54Z</time>
      </trkpt>
      <trkpt lat="43.20423" lon="5.51105">
        <ele>1.55</ele>
        <time>2020-03-06T11:27:15Z</time>
      </trkpt>
      <trkpt lat="43.20425" lon="5.51108">
        <ele>3.1</ele>
        <time>2020-03-06T11:27:22Z</time>
      </trkpt>
      <trkpt lat="43.20427" lon="5.5112">
        <ele>6.55</ele>
        <time>2020-03-06T11:27:38Z</time>
      </trkpt>
      <trkpt lat="43.20429" lon="5.51127">
        <ele>9.67</ele>
        <time>2020-03-06T11:27:48Z</time>
      </trkpt>
      <trkpt lat="43.20432" lon="5.51133">
        <ele>12.87</ele>
        <time>2020-03-06T11:27:57Z</time>
      </trkpt>
      <trkpt lat="43.20434" lon="5.51142">
        <ele>15.95</ele>
        <time>2020-03-06T11:28:10Z</time>
      </trkpt>
      <trkpt lat="43.20439" lon="5.51144">
        <ele>17.15</ele>
        <time>2020-03-06T11:28:18Z</time>
      </trkpt>
      <trkpt lat="43.20446" lon="5.51151">
        <ele>20.42</ele>
        <time>2020-03-06T11:28:34Z</time>
      </trkpt>
      <trkpt lat="43.20445" lon="5.51155">
        <ele>23.53</ele>
        <time>2020-03-06T11:28:52Z</time>
      </trkpt>
      <trkpt lat="43.20439" lon="5.51162">
        <ele>24.94</ele>
        <time>2020-03-06T11:29:15Z</time>
      </trkpt>
      <trkpt lat="43.20428" lon="5.51162">
        <ele>23.48</ele>
        <time>2020-03-06T11:29:30Z</time>
      </trkpt>
      <trkpt lat="43.20411" lon="5.51166">
        <ele>24.11</ele>
        <time>2020-03-06T11:29:53Z</time>
      </trkpt>
      <trkpt lat="43.20397" lon="5.51173">
        <ele>25.27</ele>
        <time>2020-03-06T11:30:12Z</time>
      </trkpt>
      <trkpt lat="43.20382" lon="5.51176">
        <ele>24.33</ele>
        <time>2020-03-06T11:30:31Z</time>
      </trkpt>
      <trkpt lat="43.20363" lon="5.51179">
        <ele>24</ele>
        <time>2020-03-06T11:30:51Z</time>
      </trkpt>
      <trkpt lat="43.20347" lon="5.51179">
        <ele>22.49</ele>
        <time>2020-03-06T11:31:11Z</time>
      </trkpt>
      <trkpt lat="43.20345" lon="5.5118">
        <ele>22.39</ele>
        <time>2020-03-06T11:31:15Z</time>
      </trkpt>
      <trkpt lat="43.20337" lon="5.51179">
        <ele>21.52</ele>
        <time>2020-03-06T11:31:24Z</time>
      </trkpt>
      <trkpt lat="43.20325" lon="5.51175">
        <ele>19.46</ele>
        <time>2020-03-06T11:31:41Z</time>
      </trkpt>
      <trkpt lat="43.20324" lon="5.51175">
        <ele>19.03</ele>
        <time>2020-03-06T11:31:44Z</time>
      </trkpt>
      <trkpt lat="43.20312" lon="5.5117">
        <ele>18.38</ele>
        <time>2020-03-06T11:32:03Z</time>
      </trkpt>
      <trkpt lat="43.20311" lon="5.51169">
        <ele>18.31</ele>
        <time>2020-03-06T11:32:04Z</time>
      </trkpt>
      <trkpt lat="43.20308" lon="5.51168">
        <ele>19.16</ele>
        <time>2020-03-06T11:44:57Z</time>
      </trkpt>
      <trkpt lat="43.20318" lon="5.51171">
        <ele>18.62</ele>
        <time>2020-03-06T11:45:17Z</time>
      </trkpt>
      <trkpt lat="43.2032" lon="5.5117">
        <ele>20.21</ele>
        <time>2020-03-06T11:45:40Z</time>
      </trkpt>
      <trkpt lat="43.20321" lon="5.51169">
        <ele>19.71</ele>
        <time>2020-03-06T11:46:08Z</time>
      </trkpt>
      <trkpt lat="43.20321" lon="5.51174">
        <ele>19.6</ele>
        <time>2020-03-06T11:46:27Z</time>
      </trkpt>
      <trkpt lat="43.20318" lon="5.51178">
        <ele>18.97</ele>
        <time>2020-03-06T11:46:56Z</time>
      </trkpt>
      <trkpt lat="43.20322" lon="5.51177">
        <ele>20.44</ele>
        <time>2020-03-06T11:47:15Z</time>
      </trkpt>
      <trkpt lat="43.20334" lon="5.51179">
        <ele>22.29</ele>
        <time>2020-03-06T11:47:30Z</time>
      </trkpt>
      <trkpt lat="43.20351" lon="5.51175">
        <ele>24.8</ele>
        <time>2020-03-06T11:47:47Z</time>
      </trkpt>
      <trkpt lat="43.2037" lon="5.51175">
        <ele>26.14</ele>
        <time>2020-03-06T11:48:04Z</time>
      </trkpt>
      <trkpt lat="43.20389" lon="5.51178">
        <ele>26.88</ele>
        <time>2020-03-06T11:48:18Z</time>
      </trkpt>
      <trkpt lat="43.20408" lon="5.51172">
        <ele>26.21</ele>
        <time>2020-03-06T11:48:36Z</time>
      </trkpt>
      <trkpt lat="43.20422" lon="5.51168">
        <ele>25.23</ele>
        <time>2020-03-06T11:48:51Z</time>
      </trkpt>
      <trkpt lat="43.20438" lon="5.51171">
        <ele>26.19</ele>
        <time>2020-03-06T11:49:07Z</time>
      </trkpt>
      <trkpt lat="43.20445" lon="5.51172">
        <ele>26.92</ele>
        <time>2020-03-06T11:49:21Z</time>
      </trkpt>
      <trkpt lat="43.20449" lon="5.51171">
        <ele>27.12</ele>
        <time>2020-03-06T11:49:25Z</time>
      </trkpt>
      <trkpt lat="43.20459" lon="5.51166">
        <ele>28.61</ele>
        <time>2020-03-06T11:49:43Z</time>
      </trkpt>
      <trkpt lat="43.20465" lon="5.51163">
        <ele>31.64</ele>
        <time>2020-03-06T11:49:55Z</time>
      </trkpt>
      <trkpt lat="43.20473" lon="5.51159">
        <ele>33.24</ele>
        <time>2020-03-06T11:50:12Z</time>
      </trkpt>
      <trkpt lat="43.20483" lon="5.51161">
        <ele>35.75</ele>
        <time>2020-03-06T11:50:31Z</time>
      </trkpt>
      <trkpt lat="43.20487" lon="5.51169">
        <ele>33.5</ele>
        <time>2020-03-06T11:50:52Z</time>
      </trkpt>
      <trkpt lat="43.20491" lon="5.51176">
        <ele>30.97</ele>
        <time>2020-03-06T11:51:12Z</time>
      </trkpt>
      <trkpt lat="43.20489" lon="5.51179">
        <ele>28.11</ele>
        <time>2020-03-06T11:51:29Z</time>
      </trkpt>
      <trkpt lat="43.20485" lon="5.51184">
        <ele>25.03</ele>
        <time>2020-03-06T11:51:45Z</time>
      </trkpt>
      <trkpt lat="43.20487" lon="5.51193">
        <ele>21.99</ele>
        <time>2020-03-06T11:52:01Z</time>
      </trkpt>
      <trkpt lat="43.20492" lon="5.512">
        <ele>19.88</ele>
        <time>2020-03-06T11:52:22Z</time>
      </trkpt>
      <trkpt lat="43.20492" lon="5.51213">
        <ele>18.21</ele>
        <time>2020-03-06T11:52:37Z</time>
      </trkpt>
      <trkpt lat="43.20493" lon="5.51228">
        <ele>15.59</ele>
        <time>2020-03-06T11:52:50Z</time>
      </trkpt>
      <trkpt lat="43.20493" lon="5.51229">
        <ele>15.49</ele>
        <time>2020-03-06T11:52:51Z</time>
      </trkpt>
      <trkpt lat="43.20497" lon="5.51239">
        <ele>15.35</ele>
        <time>2020-03-06T11:53:08Z</time>
      </trkpt>
      <trkpt lat="43.205" lon="5.51244">
        <ele>15.46</ele>
        <time>2020-03-06T11:53:27Z</time>
      </trkpt>
      <trkpt lat="43.20518" lon="5.51257">
        <ele>15.23</ele>
        <time>2020-03-06T11:53:47Z</time>
      </trkpt>
      <trkpt lat="43.20536" lon="5.51272">
        <ele>15.45</ele>
        <time>2020-03-06T11:54:05Z</time>
      </trkpt>
      <trkpt lat="43.20543" lon="5.51291">
        <ele>15.17</ele>
        <time>2020-03-06T11:54:23Z</time>
      </trkpt>
      <trkpt lat="43.20542" lon="5.51294">
        <ele>14.91</ele>
        <time>2020-03-06T11:54:25Z</time>
      </trkpt>
      <trkpt lat="43.20542" lon="5.51303">
        <ele>13.16</ele>
        <time>2020-03-06T11:54:41Z</time>
      </trkpt>
      <trkpt lat="43.20548" lon="5.51297">
        <ele>16.17</ele>
        <time>2020-03-06T11:55:01Z</time>
      </trkpt>
      <trkpt lat="43.20551" lon="5.51304">
        <ele>19.25</ele>
        <time>2020-03-06T11:55:14Z</time>
      </trkpt>
      <trkpt lat="43.20545" lon="5.51321">
        <ele>21.05</ele>
        <time>2020-03-06T11:55:35Z</time>
      </trkpt>
      <trkpt lat="43.20546" lon="5.51324">
        <ele>21.12</ele>
        <time>2020-03-06T11:55:39Z</time>
      </trkpt>
      <trkpt lat="43.2056" lon="5.51339">
        <ele>20.37</ele>
        <time>2020-03-06T11:55:53Z</time>
      </trkpt>
      <trkpt lat="43.20566" lon="5.51351">
        <ele>19.82</ele>
        <time>2020-03-06T11:56:02Z</time>
      </trkpt>
      <trkpt lat="43.20571" lon="5.51362">
        <ele>18.55</ele>
        <time>2020-03-06T11:56:10Z</time>
      </trkpt>
      <trkpt lat="43.20578" lon="5.51385">
        <ele>16.28</ele>
        <time>2020-03-06T11:56:23Z</time>
      </trkpt>
      <trkpt lat="43.20578" lon="5.51409">
        <ele>14.49</ele>
        <time>2020-03-06T11:56:36Z</time>
      </trkpt>
      <trkpt lat="43.2058" lon="5.51431">
        <ele>11.69</ele>
        <time>2020-03-06T11:56:51Z</time>
      </trkpt>
      <trkpt lat="43.20581" lon="5.51433">
        <ele>11.49</ele>
        <time>2020-03-06T11:56:52Z</time>
      </trkpt>
      <trkpt lat="43.20583" lon="5.51446">
        <ele>10.55</ele>
        <time>2020-03-06T11:56:59Z</time>
      </trkpt>
      <trkpt lat="43.20593" lon="5.51469">
        <ele>10.7</ele>
        <time>2020-03-06T11:57:17Z</time>
      </trkpt>
      <trkpt lat="43.20604" lon="5.51475">
        <ele>10.39</ele>
        <time>2020-03-06T11:57:28Z</time>
      </trkpt>
      <trkpt lat="43.20611" lon="5.51481">
        <ele>10</ele>
        <time>2020-03-06T11:57:35Z</time>
      </trkpt>
      <trkpt lat="43.20632" lon="5.51486">
        <ele>10.3</ele>
        <time>2020-03-06T11:57:49Z</time>
      </trkpt>
      <trkpt lat="43.20647" lon="5.51496">
        <ele>11.42</ele>
        <time>2020-03-06T11:58:09Z</time>
      </trkpt>
      <trkpt lat="43.20676" lon="5.515">
        <ele>10.59</ele>
        <time>2020-03-06T11:58:25Z</time>
      </trkpt>
      <trkpt lat="43.20689" lon="5.51507">
        <ele>10.8</ele>
        <time>2020-03-06T11:58:35Z</time>
      </trkpt>
      <trkpt lat="43.20704" lon="5.51521">
        <ele>10.95</ele>
        <time>2020-03-06T11:58:46Z</time>
      </trkpt>
      <trkpt lat="43.20723" lon="5.51536">
        <ele>11.13</ele>
        <time>2020-03-06T11:58:59Z</time>
      </trkpt>
      <trkpt lat="43.20725" lon="5.51537">
        <ele>11.1</ele>
        <time>2020-03-06T11:59:00Z</time>
      </trkpt>
      <trkpt lat="43.20741" lon="5.51552">
        <ele>10.79</ele>
        <time>2020-03-06T11:59:15Z</time>
      </trkpt>
      <trkpt lat="43.20745" lon="5.51558">
        <ele>11.02</ele>
        <time>2020-03-06T11:59:20Z</time>
      </trkpt>
      <trkpt lat="43.2076" lon="5.51581">
        <ele>11.31</ele>
        <time>2020-03-06T11:59:33Z</time>
      </trkpt>
      <trkpt lat="43.20773" lon="5.51604">
        <ele>11.55</ele>
        <time>2020-03-06T11:59:47Z</time>
      </trkpt>
      <trkpt lat="43.20783" lon="5.51621">
        <ele>11.84</ele>
        <time>2020-03-06T11:59:59Z</time>
      </trkpt>
      <trkpt lat="43.20786" lon="5.51627">
        <ele>11.9</ele>
        <time>2020-03-06T12:00:03Z</time>
      </trkpt>
      <trkpt lat="43.20798" lon="5.51648">
        <ele>11.27</ele>
        <time>2020-03-06T12:00:18Z</time>
      </trkpt>
      <trkpt lat="43.20808" lon="5.51669">
        <ele>11.29</ele>
        <time>2020-03-06T12:00:32Z</time>
      </trkpt>
      <trkpt lat="43.20821" lon="5.51692">
        <ele>10.98</ele>
        <time>2020-03-06T12:00:46Z</time>
      </trkpt>
      <trkpt lat="43.20832" lon="5.51698">
        <ele>10.92</ele>
        <time>2020-03-06T12:00:58Z</time>
      </trkpt>
      <trkpt lat="43.20834" lon="5.51698">
        <ele>10.88</ele>
        <time>2020-03-06T12:00:59Z</time>
      </trkpt>
      <trkpt lat="43.20844" lon="5.51701">
        <ele>10.61</ele>
        <time>2020-03-06T12:01:05Z</time>
      </trkpt>
      <trkpt lat="43.20848" lon="5.51709">
        <ele>10.52</ele>
        <time>2020-03-06T12:01:12Z</time>
      </trkpt>
      <trkpt lat="43.20853" lon="5.51715">
        <ele>10.74</ele>
        <time>2020-03-06T12:01:19Z</time>
      </trkpt>
      <trkpt lat="43.20874" lon="5.5174">
        <ele>11.39</ele>
        <time>2020-03-06T12:01:36Z</time>
      </trkpt>
      <trkpt lat="43.20888" lon="5.51758">
        <ele>11</ele>
        <time>2020-03-06T12:01:49Z</time>
      </trkpt>
      <trkpt lat="43.20905" lon="5.51781">
        <ele>11.06</ele>
        <time>2020-03-06T12:02:04Z</time>
      </trkpt>
      <trkpt lat="43.20906" lon="5.51783">
        <ele>11.05</ele>
        <time>2020-03-06T12:02:05Z</time>
      </trkpt>
      <trkpt lat="43.20929" lon="5.51808">
        <ele>11.18</ele>
        <time>2020-03-06T12:02:24Z</time>
      </trkpt>
      <trkpt lat="43.20946" lon="5.51835">
        <ele>11.4</ele>
        <time>2020-03-06T12:02:41Z</time>
      </trkpt>
      <trkpt lat="43.20965" lon="5.51861">
        <ele>11.56</ele>
        <time>2020-03-06T12:03:00Z</time>
      </trkpt>
      <trkpt lat="43.20981" lon="5.51885">
        <ele>11.29</ele>
        <time>2020-03-06T12:03:17Z</time>
      </trkpt>
      <trkpt lat="43.20994" lon="5.51901">
        <ele>11.35</ele>
        <time>2020-03-06T12:03:30Z</time>
      </trkpt>
      <trkpt lat="43.2101" lon="5.51928">
        <ele>10.91</ele>
        <time>2020-03-06T12:03:46Z</time>
      </trkpt>
      <trkpt lat="43.21017" lon="5.51942">
        <ele>11.15</ele>
        <time>2020-03-06T12:03:55Z</time>
      </trkpt>
      <trkpt lat="43.21018" lon="5.51949">
        <ele>11.24</ele>
        <time>2020-03-06T12:04:01Z</time>
      </trkpt>
      <trkpt lat="43.21022" lon="5.51954">
        <ele>11.46</ele>
        <time>2020-03-06T12:04:05Z</time>
      </trkpt>
      <trkpt lat="43.21032" lon="5.51964">
        <ele>12.18</ele>
        <time>2020-03-06T12:04:12Z</time>
      </trkpt>
      <trkpt lat="43.21038" lon="5.51969">
        <ele>13.1</ele>
        <time>2020-03-06T12:04:18Z</time>
      </trkpt>
      <trkpt lat="43.21062" lon="5.51985">
        <ele>12.65</ele>
        <time>2020-03-06T12:04:35Z</time>
      </trkpt>
      <trkpt lat="43.2108" lon="5.52001">
        <ele>12.56</ele>
        <time>2020-03-06T12:04:50Z</time>
      </trkpt>
      <trkpt lat="43.21084" lon="5.52003">
        <ele>12.38</ele>
        <time>2020-03-06T12:04:53Z</time>
      </trkpt>
      <trkpt lat="43.21088" lon="5.52005">
        <ele>12.28</ele>
        <time>2020-03-06T12:04:57Z</time>
      </trkpt>
      <trkpt lat="43.21095" lon="5.52009">
        <ele>12.53</ele>
        <time>2020-03-06T12:05:02Z</time>
      </trkpt>
      <trkpt lat="43.21108" lon="5.52022">
        <ele>12.26</ele>
        <time>2020-03-06T12:05:12Z</time>
      </trkpt>
      <trkpt lat="43.21127" lon="5.52051">
        <ele>12.11</ele>
        <time>2020-03-06T12:05:29Z</time>
      </trkpt>
      <trkpt lat="43.21145" lon="5.52074">
        <ele>12.4</ele>
        <time>2020-03-06T12:05:43Z</time>
      </trkpt>
      <trkpt lat="43.21161" lon="5.52091">
        <ele>12.37</ele>
        <time>2020-03-06T12:05:55Z</time>
      </trkpt>
      <trkpt lat="43.21171" lon="5.52116">
        <ele>12.57</ele>
        <time>2020-03-06T12:06:11Z</time>
      </trkpt>
      <trkpt lat="43.2118" lon="5.52128">
        <ele>12.88</ele>
        <time>2020-03-06T12:06:19Z</time>
      </trkpt>
      <trkpt lat="43.21198" lon="5.52156">
        <ele>14.03</ele>
        <time>2020-03-06T12:06:38Z</time>
      </trkpt>
      <trkpt lat="43.21202" lon="5.52171">
        <ele>14.47</ele>
        <time>2020-03-06T12:06:46Z</time>
      </trkpt>
      <trkpt lat="43.21208" lon="5.52191">
        <ele>14.98</ele>
        <time>2020-03-06T12:06:58Z</time>
      </trkpt>
      <trkpt lat="43.2121" lon="5.52194">
        <ele>15.07</ele>
        <time>2020-03-06T12:07:00Z</time>
      </trkpt>
      <trkpt lat="43.21218" lon="5.52215">
        <ele>15.62</ele>
        <time>2020-03-06T12:07:17Z</time>
      </trkpt>
      <trkpt lat="43.2122" lon="5.52213">
        <ele>15.65</ele>
        <time>2020-03-06T12:07:20Z</time>
      </trkpt>
      <trkpt lat="43.21239" lon="5.52224">
        <ele>16.27</ele>
        <time>2020-03-06T12:07:37Z</time>
      </trkpt>
      <trkpt lat="43.21258" lon="5.52225">
        <ele>15.94</ele>
        <time>2020-03-06T12:07:48Z</time>
      </trkpt>
      <trkpt lat="43.21259" lon="5.52231">
        <ele>15.39</ele>
        <time>2020-03-06T12:08:10Z</time>
      </trkpt>
      <trkpt lat="43.21259" lon="5.52231">
        <ele>15.46</ele>
        <time>2020-03-06T12:08:13Z</time>
      </trkpt>
    </trkseg>
  </trk>
</gpx>